Observation data for Endee on 06/20/2019      Previous  Date  Next       Current Mesonet Observations  Soil Data  Daily Summary Page  Observations in Plain Language
KEN1 200500Z 18008KT 21/09 A2987 RMK A01 T02100088  RH  046%=      5-min Rain = 0
KEN1 200501Z 18009KT 21/09 A2987 RMK A01 T02080089  RH  046%=      5-min Rain = 0
KEN1 200502Z 18009KT 21/09 A2987 RMK A01 T02070089  RH  047%=      5-min Rain = 0
KEN1 200503Z 18010KT 21/09 A2988 RMK A01 T02060088  RH  047%=      5-min Rain = 0
KEN1 200504Z 17010KT 21/09 A2988 RMK A01 T02060087  RH  046%=      5-min Rain = 0
KEN1 200505Z 17010KT 21/09 A2988 RMK A01 T02060087  RH  046%=      5-min Rain = 0
KEN1 200506Z 17010KT 21/09 A2987 RMK A01 T02070085  RH  045%=      5-min Rain = 0
KEN1 200507Z 16011KT 21/09 A2987 RMK A01 T02090085  RH  045%=      5-min Rain = 0
KEN1 200508Z 16010KT 21/09 A2987 RMK A01 T02100085  RH  045%=      5-min Rain = 0
KEN1 200509Z 16010KT 21/09 A2987 RMK A01 T02100085  RH  044%=      5-min Rain = 0
KEN1 200510Z 15010KT 21/09 A2987 RMK A01 T02110085  RH  044%=      5-min Rain = 0
KEN1 200511Z 15010KT 21/09 A2987 RMK A01 T02110085  RH  044%=      5-min Rain = 0
KEN1 200512Z 15010KT 21/08 A2987 RMK A01 T02100084  RH  044%=      5-min Rain = 0
KEN1 200513Z 15010KT 21/08 A2987 RMK A01 T02110084  RH  044%=      5-min Rain = 0
KEN1 200514Z 15010KT 21/08 A2987 RMK A01 T02120084  RH  044%=      5-min Rain = 0
KEN1 200515Z 15011KT 21/08 A2987 RMK A01 T02130083  RH  043%=      5-min Rain = 0
KEN1 200516Z 15012KT 22/08 A2987 RMK A01 T02150081  RH  042%=      5-min Rain = 0
KEN1 200517Z 16011KT 22/08 A2987 RMK A01 T02180082  RH  042%=      5-min Rain = 0
KEN1 200518Z 16011KT 22/08 A2987 RMK A01 T02200081  RH  041%=      5-min Rain = 0
KEN1 200519Z 16010KT 22/08 A2987 RMK A01 T02220082  RH  040%=      5-min Rain = 0
KEN1 200520Z 16010KT 22/08 A2987 RMK A01 T02230082  RH  040%=      5-min Rain = 0
KEN1 200521Z 16009KT 22/08 A2987 RMK A01 T02230083  RH  041%=      5-min Rain = 0
KEN1 200522Z 15009KT 22/08 A2987 RMK A01 T02220083  RH  041%=      5-min Rain = 0
KEN1 200523Z 15009KT 22/08 A2987 RMK A01 T02210083  RH  041%=      5-min Rain = 0
KEN1 200524Z 15010KT 22/08 A2987 RMK A01 T02210084  RH  041%=      5-min Rain = 0
KEN1 200525Z 15011KT 22/08 A2987 RMK A01 T02210084  RH  041%=      5-min Rain = 0
KEN1 200526Z 15012KT 22/08 A2987 RMK A01 T02200084  RH  042%=      5-min Rain = 0
KEN1 200527Z 16012KT 22/09 A2987 RMK A01 T02210085  RH  042%=      5-min Rain = 0
KEN1 200528Z 16012KT 22/09 A2987 RMK A01 T02220086  RH  042%=      5-min Rain = 0
KEN1 200529Z 17012KT 22/09 A2987 RMK A01 T02220087  RH  042%=      5-min Rain = 0
KEN1 200530Z 17011KT 22/09 A2987 RMK A01 T02230088  RH  042%=      5-min Rain = 0
KEN1 200531Z 17010KT 22/09 A2987 RMK A01 T02220089  RH  043%=      5-min Rain = 0
KEN1 200532Z 17010KT 22/09 A2987 RMK A01 T02210090  RH  043%=      5-min Rain = 0
KEN1 200533Z 17009KT 22/09 A2987 RMK A01 T02200090  RH  044%=      5-min Rain = 0
KEN1 200534Z 17011KT 22/09 A2987 RMK A01 T02180091  RH  044%=      5-min Rain = 0
KEN1 200535Z 16012KT 22/09 A2987 RMK A01 T02170092  RH  045%=      5-min Rain = 0
KEN1 200536Z 17013KT 22/10 A2987 RMK A01 T02180095  RH  045%=      5-min Rain = 0
KEN1 200537Z 17012KT 22/10 A2987 RMK A01 T02190097  RH  046%=      5-min Rain = 0
KEN1 200538Z 17011KT 22/10 A2987 RMK A01 T02200099  RH  046%=      5-min Rain = 0
KEN1 200539Z 17010KT 22/10 A2988 RMK A01 T02200100  RH  047%=      5-min Rain = 0
KEN1 200540Z 16012KT 22/10 A2988 RMK A01 T02190102  RH  047%=      5-min Rain = 0
KEN1 200541Z 16013KT 22/10 A2987 RMK A01 T02190104  RH  048%=      5-min Rain = 0
KEN1 200542Z 16016KT 22/11 A2987 RMK A01 T02200107  RH  049%=      5-min Rain = 0
KEN1 200543Z 15013KT 22/11 A2988 RMK A01 T02230111  RH  049%=      5-min Rain = 0
KEN1 200544Z 15014KT 22/11 A2987 RMK A01 T02230112  RH  049%=      5-min Rain = 0
KEN1 200545Z 15014KT 22/11 A2987 RMK A01 T02240114  RH  050%=      5-min Rain = 0
KEN1 200546Z 15014KT 22/12 A2987 RMK A01 T02230115  RH  050%=      5-min Rain = 0
KEN1 200547Z 15016G21KT 22/12 A2987 RMK A01 T02230117  RH  051%=      5-min Rain = 0
KEN1 200548Z 15014G19KT 22/12 A2987 RMK A01 T02240121  RH  052%=      5-min Rain = 0
KEN1 200549Z 15019KT 23/12 A2987 RMK A01 T02260123  RH  052%=      5-min Rain = 0
KEN1 200550Z 15020KT 23/13 A2987 RMK A01 T02300127  RH  052%=      5-min Rain = 0
KEN1 200551Z 16020KT 23/13 A2987 RMK A01 T02330127  RH  051%=      5-min Rain = 0
KEN1 200552Z 16017KT 24/13 A2988 RMK A01 T02350128  RH  051%=      5-min Rain = 0
KEN1 200553Z 16017KT 24/13 A2988 RMK A01 T02360128  RH  051%=      5-min Rain = 0
KEN1 200554Z 16016KT 24/13 A2988 RMK A01 T02360128  RH  051%=      5-min Rain = 0
KEN1 200555Z 16017KT 24/13 A2988 RMK A01 T02350129  RH  051%=      5-min Rain = 0
KEN1 200556Z 16019KT 23/13 A2988 RMK A01 T02340129  RH  052%=      5-min Rain = 0
KEN1 200557Z 16017KT 24/13 A2988 RMK A01 T02350129  RH  051%=      5-min Rain = 0
KEN1 200558Z 15016KT 23/13 A2988 RMK A01 T02340129  RH  051%=      5-min Rain = 0
KEN1 200559Z 15017KT 23/13 A2988 RMK A01 T02340129  RH  052%=      5-min Rain = 0
KEN1 200600Z 15018G23KT 23/13 A2988 RMK A01 T02330130  RH  052%=      5-min Rain = 0
KEN1 200601Z 15017G22KT 23/13 A2988 RMK A01 T02320131  RH  053%=      5-min Rain = 0
KEN1 200602Z 15015KT 23/13 A2988 RMK A01 T02330131  RH  053%=      5-min Rain = 0
KEN1 200603Z 16018KT 23/13 A2988 RMK A01 T02330130  RH  052%=      5-min Rain = 0
KEN1 200604Z 16015G20KT 23/13 A2988 RMK A01 T02330131  RH  052%=      5-min Rain = 0
KEN1 200605Z 17016KT 23/13 A2988 RMK A01 T02340131  RH  052%=      5-min Rain = 0
KEN1 200606Z 16016KT 23/13 A2988 RMK A01 T02340131  RH  052%=      5-min Rain = 0
KEN1 200607Z 16016KT 23/13 A2988 RMK A01 T02330132  RH  053%=      5-min Rain = 0
KEN1 200608Z 16016KT 23/13 A2988 RMK A01 T02330132  RH  053%=      5-min Rain = 0
KEN1 200609Z 15018KT 23/13 A2988 RMK A01 T02330131  RH  053%=      5-min Rain = 0
KEN1 200610Z 15016KT 23/13 A2988 RMK A01 T02330132  RH  053%=      5-min Rain = 0
KEN1 200611Z 15015KT 23/13 A2988 RMK A01 T02330131  RH  053%=      5-min Rain = 0
KEN1 200612Z 16014KT 23/13 A2988 RMK A01 T02320132  RH  053%=      5-min Rain = 0
KEN1 200613Z 15016KT 23/13 A2988 RMK A01 T02310132  RH  054%=      5-min Rain = 0
KEN1 200614Z 16013KT 23/13 A2988 RMK A01 T02310132  RH  054%=      5-min Rain = 0
KEN1 200615Z 16014KT 23/13 A2988 RMK A01 T02310132  RH  054%=      5-min Rain = 0
KEN1 200616Z 16013KT 23/13 A2988 RMK A01 T02310132  RH  054%=      5-min Rain = 0
KEN1 200617Z 17011KT 23/13 A2988 RMK A01 T02300132  RH  054%=      5-min Rain = 0
KEN1 200618Z 17012KT 23/13 A2988 RMK A01 T02280132  RH  055%=      5-min Rain = 0
KEN1 200619Z 17011KT 23/13 A2988 RMK A01 T02280132  RH  055%=      5-min Rain = 0
KEN1 200620Z 16010KT 23/13 A2988 RMK A01 T02280132  RH  055%=      5-min Rain = 0
KEN1 200621Z 16009KT 23/13 A2988 RMK A01 T02270132  RH  055%=      5-min Rain = 0
KEN1 200622Z 16008KT 23/13 A2988 RMK A01 T02250132  RH  055%=      5-min Rain = 0
KEN1 200623Z 16006KT 23/13 A2988 RMK A01 T02250132  RH  056%=      5-min Rain = 0
KEN1 200624Z 16006KT 22/13 A2988 RMK A01 T02230132  RH  056%=      5-min Rain = 0
KEN1 200625Z 15008KT 22/13 A2988 RMK A01 T02220132  RH  057%=      5-min Rain = 0
KEN1 200626Z 15009KT 22/13 A2988 RMK A01 T02200132  RH  057%=      5-min Rain = 0
KEN1 200627Z 15010KT 22/13 A2988 RMK A01 T02190132  RH  057%=      5-min Rain = 0
KEN1 200628Z 15011KT 22/13 A2988 RMK A01 T02180132  RH  058%=      5-min Rain = 0
KEN1 200629Z 15010KT 22/13 A2988 RMK A01 T02170132  RH  058%=      5-min Rain = 0
KEN1 200630Z 15010KT 22/13 A2988 RMK A01 T02160132  RH  059%=      5-min Rain = 0
KEN1 200631Z 14011KT 22/13 A2988 RMK A01 T02150131  RH  059%=      5-min Rain = 0
KEN1 200632Z 15011KT 21/13 A2988 RMK A01 T02140131  RH  059%=      5-min Rain = 0
KEN1 200633Z 15013KT 21/13 A2988 RMK A01 T02140131  RH  059%=      5-min Rain = 0
KEN1 200634Z 14013KT 21/13 A2987 RMK A01 T02140131  RH  059%=      5-min Rain = 0
KEN1 200635Z 14015KT 21/13 A2987 RMK A01 T02140131  RH  059%=      5-min Rain = 0
KEN1 200636Z 14015KT 21/13 A2987 RMK A01 T02140130  RH  059%=      5-min Rain = 0
KEN1 200637Z 15016KT 22/13 A2987 RMK A01 T02150131  RH  059%=      5-min Rain = 0
KEN1 200638Z 15016KT 22/13 A2987 RMK A01 T02150131  RH  059%=      5-min Rain = 0
KEN1 200639Z 15015KT 22/13 A2987 RMK A01 T02150131  RH  059%=      5-min Rain = 0
KEN1 200640Z 14017KT 22/13 A2987 RMK A01 T02150131  RH  059%=      5-min Rain = 0
KEN1 200641Z 15017KT 21/13 A2987 RMK A01 T02140131  RH  059%=      5-min Rain = 0
KEN1 200642Z 15019KT 21/13 A2987 RMK A01 T02130131  RH  059%=      5-min Rain = 0
KEN1 200643Z 15016KT 21/13 A2987 RMK A01 T02140131  RH  059%=      5-min Rain = 0
KEN1 200644Z 15014KT 22/13 A2987 RMK A01 T02150131  RH  059%=      5-min Rain = 0
KEN1 200645Z 14013KT 21/13 A2987 RMK A01 T02140131  RH  059%=      5-min Rain = 0
KEN1 200646Z 14012KT 21/13 A2987 RMK A01 T02130131  RH  059%=      5-min Rain = 0
KEN1 200647Z 14013KT 21/13 A2987 RMK A01 T02120131  RH  060%=      5-min Rain = 0
KEN1 200648Z 15014KT 21/13 A2987 RMK A01 T02110131  RH  060%=      5-min Rain = 0
KEN1 200649Z 15014KT 21/13 A2987 RMK A01 T02110132  RH  061%=      5-min Rain = 0
KEN1 200650Z 15014KT 21/13 A2987 RMK A01 T02110132  RH  061%=      5-min Rain = 0
KEN1 200651Z 15015KT 21/13 A2987 RMK A01 T02110132  RH  060%=      5-min Rain = 0
KEN1 200652Z 15014G19KT 21/13 A2987 RMK A01 T02110132  RH  060%=      5-min Rain = 0
KEN1 200653Z 15015KT 21/13 A2987 RMK A01 T02120132  RH  060%=      5-min Rain = 0
KEN1 200654Z 15014KT 21/13 A2987 RMK A01 T02120132  RH  060%=      5-min Rain = 0
KEN1 200655Z 15013KT 21/13 A2987 RMK A01 T02120132  RH  060%=      5-min Rain = 0
KEN1 200656Z 15013KT 21/13 A2987 RMK A01 T02120133  RH  061%=      5-min Rain = 0
KEN1 200657Z 16014KT 21/13 A2987 RMK A01 T02110134  RH  061%=      5-min Rain = 0
KEN1 200658Z 15013KT 21/13 A2987 RMK A01 T02110134  RH  061%=      5-min Rain = 0
KEN1 200659Z 16012KT 21/13 A2987 RMK A01 T02120134  RH  061%=      5-min Rain = 0
KEN1 200700Z 16013KT 21/13 A2987 RMK A01 T02110134  RH  061%=      5-min Rain = 0
KEN1 200701Z 15013KT 21/14 A2987 RMK A01 T02100135  RH  062%=      5-min Rain = 0
KEN1 200702Z 15014KT 21/13 A2987 RMK A01 T02100134  RH  062%=      5-min Rain = 0
KEN1 200703Z 15012KT 21/13 A2987 RMK A01 T02090134  RH  062%=      5-min Rain = 0
KEN1 200704Z 15012KT 21/13 A2987 RMK A01 T02080134  RH  062%=      5-min Rain = 0
KEN1 200705Z 15012KT 21/13 A2987 RMK A01 T02060133  RH  063%=      5-min Rain = 0
KEN1 200706Z 15011KT 21/13 A2987 RMK A01 T02050133  RH  063%=      5-min Rain = 0
KEN1 200707Z 15013KT 20/13 A2987 RMK A01 T02030132  RH  064%=      5-min Rain = 0
KEN1 200708Z 15013KT 20/13 A2987 RMK A01 T02020132  RH  064%=      5-min Rain = 0
KEN1 200709Z 15013KT 20/13 A2987 RMK A01 T02010132  RH  064%=      5-min Rain = 0
KEN1 200710Z 15013KT 20/13 A2987 RMK A01 T02000132  RH  065%=      5-min Rain = 0
KEN1 200711Z 15012KT 20/13 A2987 RMK A01 T02000132  RH  065%=      5-min Rain = 0
KEN1 200712Z 15013KT 20/13 A2987 RMK A01 T01990132  RH  065%=      5-min Rain = 0
KEN1 200713Z 15013KT 20/13 A2987 RMK A01 T01980132  RH  066%=      5-min Rain = 0
KEN1 200714Z 15012KT 20/13 A2987 RMK A01 T01980132  RH  066%=      5-min Rain = 0
KEN1 200715Z 15012KT 20/13 A2987 RMK A01 T01970133  RH  066%=      5-min Rain = 0
KEN1 200716Z 15012KT 20/13 A2987 RMK A01 T01970133  RH  066%=      5-min Rain = 0
KEN1 200717Z 15012KT 20/13 A2987 RMK A01 T01960133  RH  067%=      5-min Rain = 0
KEN1 200718Z 15012KT 20/13 A2987 RMK A01 T01960134  RH  067%=      5-min Rain = 0
KEN1 200719Z 15012KT 20/13 A2987 RMK A01 T01960134  RH  067%=      5-min Rain = 0
KEN1 200720Z 15013KT 20/13 A2987 RMK A01 T01960134  RH  067%=      5-min Rain = 0
KEN1 200721Z 15014KT 20/14 A2987 RMK A01 T01960135  RH  068%=      5-min Rain = 0
KEN1 200722Z 15014KT 20/14 A2987 RMK A01 T01960136  RH  068%=      5-min Rain = 0
KEN1 200723Z 15013KT 20/14 A2987 RMK A01 T01960136  RH  068%=      5-min Rain = 0
KEN1 200724Z 15012KT 20/14 A2987 RMK A01 T01970137  RH  068%=      5-min Rain = 0
KEN1 200725Z 15013KT 20/14 A2987 RMK A01 T01970138  RH  069%=      5-min Rain = 0
KEN1 200726Z 15014KT 20/14 A2987 RMK A01 T01970139  RH  069%=      5-min Rain = 0
KEN1 200727Z 15013KT 20/14 A2987 RMK A01 T01980140  RH  069%=      5-min Rain = 0
KEN1 200728Z 15014KT 20/14 A2986 RMK A01 T01990140  RH  069%=      5-min Rain = 0
KEN1 200729Z 15014KT 20/14 A2986 RMK A01 T01990141  RH  069%=      5-min Rain = 0
KEN1 200730Z 15013KT 20/14 A2986 RMK A01 T01990141  RH  069%=      5-min Rain = 0
KEN1 200731Z 15013KT 20/14 A2986 RMK A01 T02000141  RH  069%=      5-min Rain = 0
KEN1 200732Z 15014KT 20/14 A2986 RMK A01 T02000142  RH  069%=      5-min Rain = 0
KEN1 200733Z 15013KT 20/14 A2986 RMK A01 T01990142  RH  070%=      5-min Rain = 0
KEN1 200734Z 15014KT 20/14 A2986 RMK A01 T01990142  RH  070%=      5-min Rain = 0
KEN1 200735Z 15014KT 20/14 A2986 RMK A01 T02000143  RH  070%=      5-min Rain = 0
KEN1 200736Z 15014KT 20/14 A2986 RMK A01 T02000143  RH  070%=      5-min Rain = 0
KEN1 200737Z 15013KT 20/14 A2986 RMK A01 T02000143  RH  070%=      5-min Rain = 0
KEN1 200738Z 15013KT 20/14 A2986 RMK A01 T01990143  RH  070%=      5-min Rain = 0
KEN1 200739Z 15012KT 20/14 A2986 RMK A01 T01990143  RH  070%=      5-min Rain = 0
KEN1 200740Z 15013KT 20/14 A2986 RMK A01 T01990144  RH  071%=      5-min Rain = 0
KEN1 200741Z 15011KT 20/14 A2986 RMK A01 T01980144  RH  071%=      5-min Rain = 0
KEN1 200742Z 15011KT 20/14 A2986 RMK A01 T01970144  RH  071%=      5-min Rain = 0
KEN1 200743Z 15011KT 20/14 A2986 RMK A01 T01960144  RH  072%=      5-min Rain = 0
KEN1 200744Z 15011KT 20/14 A2986 RMK A01 T01960144  RH  072%=      5-min Rain = 0
KEN1 200745Z 15012KT 20/15 A2986 RMK A01 T01960145  RH  072%=      5-min Rain = 0
KEN1 200746Z 15011KT 20/15 A2986 RMK A01 T01960145  RH  072%=      5-min Rain = 0
KEN1 200747Z 15011KT 20/15 A2986 RMK A01 T01960145  RH  072%=      5-min Rain = 0
KEN1 200748Z 15011KT 20/15 A2986 RMK A01 T01950145  RH  073%=      5-min Rain = 0
KEN1 200749Z 15011KT 20/15 A2986 RMK A01 T01950145  RH  073%=      5-min Rain = 0
KEN1 200750Z 15011KT 20/15 A2986 RMK A01 T01950146  RH  073%=      5-min Rain = 0
KEN1 200751Z 15012KT 20/15 A2986 RMK A01 T01950146  RH  074%=      5-min Rain = 0
KEN1 200752Z 15011KT 20/15 A2986 RMK A01 T01950147  RH  074%=      5-min Rain = 0
KEN1 200753Z 15011KT 20/15 A2986 RMK A01 T01950147  RH  074%=      5-min Rain = 0
KEN1 200754Z 15010KT 20/15 A2986 RMK A01 T01950147  RH  074%=      5-min Rain = 0
KEN1 200755Z 15011KT 19/15 A2986 RMK A01 T01940148  RH  074%=      5-min Rain = 0
KEN1 200756Z 15011KT 20/15 A2986 RMK A01 T01950148  RH  074%=      5-min Rain = 0
KEN1 200757Z 15011KT 19/15 A2986 RMK A01 T01940149  RH  075%=      5-min Rain = 0
KEN1 200758Z 15010KT 20/15 A2986 RMK A01 T01950149  RH  075%=      5-min Rain = 0
KEN1 200759Z 15010KT 20/15 A2986 RMK A01 T01950149  RH  075%=      5-min Rain = 0
KEN1 200800Z 16010KT 19/15 A2986 RMK A01 T01940150  RH  075%=      5-min Rain = 0
KEN1 200801Z 15010KT 19/15 A2986 RMK A01 T01940150  RH  076%=      5-min Rain = 0
KEN1 200802Z 15010KT 19/15 A2986 RMK A01 T01940150  RH  076%=      5-min Rain = 0
KEN1 200803Z 15010KT 19/15 A2986 RMK A01 T01940151  RH  076%=      5-min Rain = 0
KEN1 200804Z 15010KT 19/15 A2986 RMK A01 T01930151  RH  076%=      5-min Rain = 0
KEN1 200805Z 15010KT 19/15 A2986 RMK A01 T01930151  RH  076%=      5-min Rain = 0
KEN1 200806Z 15010KT 19/15 A2986 RMK A01 T01930151  RH  076%=      5-min Rain = 0
KEN1 200807Z 15010KT 19/15 A2986 RMK A01 T01940152  RH  077%=      5-min Rain = 0
KEN1 200808Z 15010KT 19/15 A2986 RMK A01 T01930151  RH  077%=      5-min Rain = 0
KEN1 200809Z 15010KT 19/15 A2986 RMK A01 T01930152  RH  077%=      5-min Rain = 0
KEN1 200810Z 15011KT 19/15 A2986 RMK A01 T01930152  RH  077%=      5-min Rain = 0
KEN1 200811Z 15010KT 19/15 A2986 RMK A01 T01930152  RH  077%=      5-min Rain = 0
KEN1 200812Z 15009KT 19/15 A2986 RMK A01 T01930152  RH  077%=      5-min Rain = 0
KEN1 200813Z 15009KT 19/15 A2986 RMK A01 T01930153  RH  078%=      5-min Rain = 0
KEN1 200814Z 15009KT 19/15 A2986 RMK A01 T01920153  RH  078%=      5-min Rain = 0
KEN1 200815Z 14010KT 19/15 A2986 RMK A01 T01920153  RH  078%=      5-min Rain = 0
KEN1 200816Z 15009KT 19/15 A2986 RMK A01 T01920153  RH  078%=      5-min Rain = 0
KEN1 200817Z 15009KT 19/15 A2986 RMK A01 T01920154  RH  079%=      5-min Rain = 0
KEN1 200818Z 15009KT 19/15 A2986 RMK A01 T01910154  RH  079%=      5-min Rain = 0
KEN1 200819Z 15009KT 19/15 A2986 RMK A01 T01910154  RH  079%=      5-min Rain = 0
KEN1 200820Z 15010KT 19/15 A2986 RMK A01 T01910154  RH  079%=      5-min Rain = 0
KEN1 200821Z 15009KT 19/15 A2986 RMK A01 T01910154  RH  079%=      5-min Rain = 0
KEN1 200822Z 15009KT 19/15 A2986 RMK A01 T01910154  RH  079%=      5-min Rain = 0
KEN1 200823Z 15009KT 19/16 A2986 RMK A01 T01910155  RH  080%=      5-min Rain = 0
KEN1 200824Z 16008KT 19/15 A2986 RMK A01 T01900154  RH  080%=      5-min Rain = 0
KEN1 200825Z 16009KT 19/16 A2986 RMK A01 T01910155  RH  080%=      5-min Rain = 0
KEN1 200826Z 16009KT 19/16 A2986 RMK A01 T01900155  RH  080%=      5-min Rain = 0
KEN1 200827Z 16009KT 19/16 A2986 RMK A01 T01900155  RH  080%=      5-min Rain = 0
KEN1 200828Z 16009KT 19/16 A2986 RMK A01 T01910155  RH  080%=      5-min Rain = 0
KEN1 200829Z 16009KT 19/16 A2986 RMK A01 T01910155  RH  080%=      5-min Rain = 0
KEN1 200830Z 16008KT 19/16 A2986 RMK A01 T01910155  RH  080%=      5-min Rain = 0
KEN1 200831Z 16008KT 19/16 A2986 RMK A01 T01900155  RH  080%=      5-min Rain = 0
KEN1 200832Z 16009KT 19/16 A2986 RMK A01 T01900155  RH  080%=      5-min Rain = 0
KEN1 200833Z 16009KT 19/16 A2986 RMK A01 T01890155  RH  081%=      5-min Rain = 0
KEN1 200834Z 16008KT 19/16 A2986 RMK A01 T01900156  RH  081%=      5-min Rain = 0
KEN1 200835Z 16008KT 19/16 A2986 RMK A01 T01890155  RH  081%=      5-min Rain = 0
KEN1 200836Z 16008KT 19/16 A2986 RMK A01 T01890155  RH  081%=      5-min Rain = 0
KEN1 200837Z 16009KT 19/16 A2986 RMK A01 T01880155  RH  081%=      5-min Rain = 0
KEN1 200838Z 16009KT 19/16 A2986 RMK A01 T01880156  RH  082%=      5-min Rain = 0
KEN1 200839Z 16009KT 19/16 A2986 RMK A01 T01880156  RH  082%=      5-min Rain = 0
KEN1 200840Z 16009KT 19/16 A2986 RMK A01 T01880156  RH  082%=      5-min Rain = 0
KEN1 200841Z 16009KT 19/16 A2986 RMK A01 T01880156  RH  082%=      5-min Rain = 0
KEN1 200842Z 16008KT 19/16 A2986 RMK A01 T01880156  RH  082%=      5-min Rain = 0
KEN1 200843Z 16009KT 19/16 A2986 RMK A01 T01880155  RH  081%=      5-min Rain = 0
KEN1 200844Z 16008KT 19/16 A2986 RMK A01 T01880155  RH  081%=      5-min Rain = 0
KEN1 200845Z 16008KT 19/16 A2986 RMK A01 T01870155  RH  082%=      5-min Rain = 0
KEN1 200846Z 16008KT 19/16 A2986 RMK A01 T01860155  RH  082%=      5-min Rain = 0
KEN1 200847Z 16008KT 19/16 A2986 RMK A01 T01860155  RH  082%=      5-min Rain = 0
KEN1 200848Z 16008KT 19/16 A2986 RMK A01 T01860155  RH  083%=      5-min Rain = 0
KEN1 200849Z 17008KT 19/16 A2986 RMK A01 T01850155  RH  083%=      5-min Rain = 0
KEN1 200850Z 17009KT 19/16 A2986 RMK A01 T01860156  RH  083%=      5-min Rain = 0
KEN1 200851Z 17009KT 19/16 A2986 RMK A01 T01850156  RH  083%=      5-min Rain = 0
KEN1 200852Z 17009KT 19/16 A2986 RMK A01 T01850155  RH  083%=      5-min Rain = 0
KEN1 200853Z 17009KT 19/16 A2986 RMK A01 T01850155  RH  083%=      5-min Rain = 0
KEN1 200854Z 16009KT 19/16 A2986 RMK A01 T01850156  RH  083%=      5-min Rain = 0
KEN1 200855Z 16009KT 19/16 A2986 RMK A01 T01850156  RH  083%=      5-min Rain = 0
KEN1 200856Z 16009KT 19/16 A2986 RMK A01 T01850155  RH  083%=      5-min Rain = 0
KEN1 200857Z 16009KT 19/16 A2986 RMK A01 T01850155  RH  083%=      5-min Rain = 0
KEN1 200858Z 16009KT 19/16 A2986 RMK A01 T01850155  RH  083%=      5-min Rain = 0
KEN1 200859Z 16008KT 18/16 A2986 RMK A01 T01840155  RH  083%=      5-min Rain = 0
KEN1 200900Z 16008KT 18/16 A2986 RMK A01 T01840155  RH  083%=      5-min Rain = 0
KEN1 200901Z 16008KT 18/16 A2986 RMK A01 T01840155  RH  083%=      5-min Rain = 0
KEN1 200902Z 16008KT 18/15 A2986 RMK A01 T01830154  RH  083%=      5-min Rain = 0
KEN1 200903Z 16008KT 18/15 A2986 RMK A01 T01820154  RH  084%=      5-min Rain = 0
KEN1 200904Z 16008KT 18/15 A2986 RMK A01 T01810154  RH  084%=      5-min Rain = 0
KEN1 200905Z 16008KT 18/15 A2986 RMK A01 T01800154  RH  085%=      5-min Rain = 0
KEN1 200906Z 16008KT 18/15 A2986 RMK A01 T01790154  RH  085%=      5-min Rain = 0
KEN1 200907Z 15008KT 18/15 A2986 RMK A01 T01790154  RH  085%=      5-min Rain = 0
KEN1 200908Z 15008KT 18/15 A2986 RMK A01 T01780153  RH  086%=      5-min Rain = 0
KEN1 200909Z 15008KT 18/15 A2986 RMK A01 T01770153  RH  086%=      5-min Rain = 0
KEN1 200910Z 15008KT 18/15 A2986 RMK A01 T01760153  RH  086%=      5-min Rain = 0
KEN1 200911Z 15008KT 18/15 A2986 RMK A01 T01760153  RH  086%=      5-min Rain = 0
KEN1 200912Z 15008KT 18/15 A2986 RMK A01 T01750153  RH  086%=      5-min Rain = 0
KEN1 200913Z 15008KT 18/15 A2986 RMK A01 T01750153  RH  087%=      5-min Rain = 0
KEN1 200914Z 16008KT 18/15 A2986 RMK A01 T01750152  RH  087%=      5-min Rain = 0
KEN1 200915Z 16009KT 18/15 A2986 RMK A01 T01750152  RH  087%=      5-min Rain = 0
KEN1 200916Z 16009KT 18/15 A2986 RMK A01 T01750152  RH  086%=      5-min Rain = 0
KEN1 200917Z 16009KT 18/15 A2986 RMK A01 T01750152  RH  086%=      5-min Rain = 0
KEN1 200918Z 16009KT 18/15 A2986 RMK A01 T01750152  RH  086%=      5-min Rain = 0
KEN1 200919Z 16009KT 18/15 A2986 RMK A01 T01750152  RH  086%=      5-min Rain = 0
KEN1 200920Z 16009KT 18/15 A2986 RMK A01 T01750152  RH  086%=      5-min Rain = 0
KEN1 200921Z 16009KT 18/15 A2986 RMK A01 T01750152  RH  086%=      5-min Rain = 0
KEN1 200922Z 16009KT 18/15 A2986 RMK A01 T01750152  RH  086%=      5-min Rain = 0
KEN1 200923Z 17009KT 18/15 A2986 RMK A01 T01750152  RH  086%=      5-min Rain = 0
KEN1 200924Z 16009KT 18/15 A2986 RMK A01 T01750151  RH  086%=      5-min Rain = 0
KEN1 200925Z 16009KT 17/15 A2986 RMK A01 T01740152  RH  086%=      5-min Rain = 0
KEN1 200926Z 17009KT 17/15 A2986 RMK A01 T01740152  RH  087%=      5-min Rain = 0
KEN1 200927Z 16009KT 17/15 A2986 RMK A01 T01730151  RH  087%=      5-min Rain = 0
KEN1 200928Z 16009KT 17/15 A2986 RMK A01 T01730151  RH  087%=      5-min Rain = 0
KEN1 200929Z 16008KT 17/15 A2986 RMK A01 T01720151  RH  087%=      5-min Rain = 0
KEN1 200930Z 16008KT 17/15 A2986 RMK A01 T01720151  RH  087%=      5-min Rain = 0
KEN1 200931Z 16008KT 17/15 A2986 RMK A01 T01720151  RH  088%=      5-min Rain = 0
KEN1 200932Z 15008KT 17/15 A2986 RMK A01 T01720151  RH  088%=      5-min Rain = 0
KEN1 200933Z 16008KT 17/15 A2986 RMK A01 T01720151  RH  087%=      5-min Rain = 0
KEN1 200934Z 15009KT 17/15 A2986 RMK A01 T01710150  RH  087%=      5-min Rain = 0
KEN1 200935Z 15009KT 17/15 A2986 RMK A01 T01710150  RH  087%=      5-min Rain = 0
KEN1 200936Z 16009KT 17/15 A2986 RMK A01 T01710150  RH  087%=      5-min Rain = 0
KEN1 200937Z 16009KT 17/15 A2986 RMK A01 T01700149  RH  087%=      5-min Rain = 0
KEN1 200938Z 16010KT 17/15 A2986 RMK A01 T01700149  RH  087%=      5-min Rain = 0
KEN1 200939Z 16010KT 17/15 A2986 RMK A01 T01700149  RH  087%=      5-min Rain = 0
KEN1 200940Z 15010KT 17/15 A2986 RMK A01 T01700149  RH  087%=      5-min Rain = 0
KEN1 200941Z 15009KT 17/15 A2986 RMK A01 T01710149  RH  087%=      5-min Rain = 0
KEN1 200942Z 15008KT 17/15 A2986 RMK A01 T01710149  RH  087%=      5-min Rain = 0
KEN1 200943Z 15008KT 17/15 A2986 RMK A01 T01720149  RH  086%=      5-min Rain = 0
KEN1 200944Z 15009KT 17/15 A2986 RMK A01 T01710148  RH  086%=      5-min Rain = 0
KEN1 200945Z 15009KT 17/15 A2986 RMK A01 T01720149  RH  086%=      5-min Rain = 0
KEN1 200946Z 16010KT 17/15 A2986 RMK A01 T01710148  RH  086%=      5-min Rain = 0
KEN1 200947Z 16010KT 17/15 A2986 RMK A01 T01710148  RH  087%=      5-min Rain = 0
KEN1 200948Z 16010KT 17/15 A2986 RMK A01 T01710148  RH  086%=      5-min Rain = 0
KEN1 200949Z 17009KT 17/15 A2986 RMK A01 T01720148  RH  086%=      5-min Rain = 0
KEN1 200950Z 17008KT 17/15 A2987 RMK A01 T01730148  RH  085%=      5-min Rain = 0
KEN1 200951Z 17008KT 17/15 A2987 RMK A01 T01730148  RH  085%=      5-min Rain = 0
KEN1 200952Z 17008KT 17/15 A2986 RMK A01 T01730148  RH  085%=      5-min Rain = 0
KEN1 200953Z 17008KT 17/15 A2986 RMK A01 T01720147  RH  085%=      5-min Rain = 0
KEN1 200954Z 17008KT 17/15 A2986 RMK A01 T01720147  RH  085%=      5-min Rain = 0
KEN1 200955Z 16008KT 17/15 A2986 RMK A01 T01720147  RH  085%=      5-min Rain = 0
KEN1 200956Z 16008KT 17/15 A2986 RMK A01 T01710146  RH  086%=      5-min Rain = 0
KEN1 200957Z 16008KT 17/15 A2986 RMK A01 T01700146  RH  086%=      5-min Rain = 0
KEN1 200958Z 16008KT 17/15 A2986 RMK A01 T01700146  RH  086%=      5-min Rain = 0
KEN1 200959Z 16008KT 17/15 A2986 RMK A01 T01690145  RH  086%=      5-min Rain = 0
KEN1 201000Z 16007KT 17/15 A2986 RMK A01 T01690145  RH  086%=      5-min Rain = 0
KEN1 201001Z 16008KT 17/15 A2986 RMK A01 T01690145  RH  086%=      5-min Rain = 0
KEN1 201002Z 16008KT 17/14 A2986 RMK A01 T01680144  RH  086%=      5-min Rain = 0
KEN1 201003Z 16008KT 17/15 A2986 RMK A01 T01670145  RH  086%=      5-min Rain = 0
KEN1 201004Z 16008KT 17/14 A2986 RMK A01 T01670144  RH  086%=      5-min Rain = 0
KEN1 201005Z 16008KT 17/14 A2986 RMK A01 T01680144  RH  086%=      5-min Rain = 0
KEN1 201006Z 16009KT 17/14 A2986 RMK A01 T01680144  RH  086%=      5-min Rain = 0
KEN1 201007Z 16009KT 17/14 A2986 RMK A01 T01680144  RH  086%=      5-min Rain = 0
KEN1 201008Z 16009KT 17/14 A2986 RMK A01 T01680144  RH  086%=      5-min Rain = 0
KEN1 201009Z 16009KT 17/14 A2986 RMK A01 T01670144  RH  086%=      5-min Rain = 0
KEN1 201010Z 15009KT 17/14 A2986 RMK A01 T01670144  RH  086%=      5-min Rain = 0
KEN1 201011Z 15008KT 17/14 A2986 RMK A01 T01680144  RH  086%=      5-min Rain = 0
KEN1 201012Z 15008KT 17/14 A2986 RMK A01 T01670143  RH  086%=      5-min Rain = 0
KEN1 201013Z 15009KT 17/14 A2986 RMK A01 T01670143  RH  086%=      5-min Rain = 0
KEN1 201014Z 15009KT 17/14 A2986 RMK A01 T01670143  RH  086%=      5-min Rain = 0
KEN1 201015Z 16010KT 17/14 A2986 RMK A01 T01670143  RH  086%=      5-min Rain = 0
KEN1 201016Z 16010KT 17/14 A2986 RMK A01 T01670143  RH  086%=      5-min Rain = 0
KEN1 201017Z 16010KT 17/14 A2986 RMK A01 T01670143  RH  085%=      5-min Rain = 0
KEN1 201018Z 15010KT 17/14 A2986 RMK A01 T01680143  RH  085%=      5-min Rain = 0
KEN1 201019Z 15010KT 17/14 A2986 RMK A01 T01680143  RH  085%=      5-min Rain = 0
KEN1 201020Z 15010KT 17/14 A2986 RMK A01 T01680143  RH  085%=      5-min Rain = 0
KEN1 201021Z 15010KT 17/14 A2986 RMK A01 T01680143  RH  085%=      5-min Rain = 0
KEN1 201022Z 15010KT 17/14 A2986 RMK A01 T01680143  RH  085%=      5-min Rain = 0
KEN1 201023Z 15010KT 17/14 A2986 RMK A01 T01680142  RH  085%=      5-min Rain = 0
KEN1 201024Z 15010KT 17/14 A2986 RMK A01 T01680142  RH  085%=      5-min Rain = 0
KEN1 201025Z 15010KT 17/14 A2986 RMK A01 T01680142  RH  085%=      5-min Rain = 0
KEN1 201026Z 15009KT 17/14 A2986 RMK A01 T01680143  RH  085%=      5-min Rain = 0
KEN1 201027Z 15009KT 17/14 A2986 RMK A01 T01680143  RH  085%=      5-min Rain = 0
KEN1 201028Z 15009KT 17/14 A2986 RMK A01 T01680143  RH  085%=      5-min Rain = 0
KEN1 201029Z 15010KT 17/14 A2986 RMK A01 T01680143  RH  085%=      5-min Rain = 0
KEN1 201030Z 15011KT 17/14 A2986 RMK A01 T01680143  RH  085%=      5-min Rain = 0
KEN1 201031Z 15010KT 17/14 A2986 RMK A01 T01670142  RH  085%=      5-min Rain = 0
KEN1 201032Z 15009KT 17/14 A2986 RMK A01 T01680142  RH  085%=      5-min Rain = 0
KEN1 201033Z 15009KT 17/14 A2986 RMK A01 T01680142  RH  085%=      5-min Rain = 0
KEN1 201034Z 16009KT 17/14 A2986 RMK A01 T01680142  RH  085%=      5-min Rain = 0
KEN1 201035Z 15009KT 17/14 A2986 RMK A01 T01690142  RH  084%=      5-min Rain = 0
KEN1 201036Z 16009KT 17/14 A2986 RMK A01 T01680142  RH  084%=      5-min Rain = 0
KEN1 201037Z 16009KT 17/14 A2986 RMK A01 T01680142  RH  084%=      5-min Rain = 0
KEN1 201038Z 16008KT 17/14 A2986 RMK A01 T01680141  RH  084%=      5-min Rain = 0
KEN1 201039Z 16009KT 17/14 A2986 RMK A01 T01680141  RH  084%=      5-min Rain = 0
KEN1 201040Z 16010KT 17/14 A2986 RMK A01 T01670141  RH  084%=      5-min Rain = 0
KEN1 201041Z 16010KT 17/14 A2986 RMK A01 T01670141  RH  084%=      5-min Rain = 0
KEN1 201042Z 16010KT 17/14 A2986 RMK A01 T01670141  RH  085%=      5-min Rain = 0
KEN1 201043Z 15010KT 17/14 A2986 RMK A01 T01670141  RH  085%=      5-min Rain = 0
KEN1 201044Z 16010KT 17/14 A2986 RMK A01 T01670141  RH  085%=      5-min Rain = 0
KEN1 201045Z 15010KT 17/14 A2986 RMK A01 T01670141  RH  085%=      5-min Rain = 0
KEN1 201046Z 15010KT 17/14 A2986 RMK A01 T01670141  RH  085%=      5-min Rain = 0
KEN1 201047Z 16009KT 17/14 A2986 RMK A01 T01670141  RH  085%=      5-min Rain = 0
KEN1 201048Z 15008KT 17/14 A2986 RMK A01 T01680141  RH  084%=      5-min Rain = 0
KEN1 201049Z 16008KT 17/14 A2986 RMK A01 T01680141  RH  084%=      5-min Rain = 0
KEN1 201050Z 16008KT 17/14 A2986 RMK A01 T01680141  RH  084%=      5-min Rain = 0
KEN1 201051Z 16008KT 17/14 A2986 RMK A01 T01680141  RH  084%=      5-min Rain = 0
KEN1 201052Z 16009KT 17/14 A2986 RMK A01 T01680141  RH  084%=      5-min Rain = 0
KEN1 201053Z 16009KT 17/14 A2986 RMK A01 T01680141  RH  084%=      5-min Rain = 0
KEN1 201054Z 16010KT 17/14 A2986 RMK A01 T01670140  RH  084%=      5-min Rain = 0
KEN1 201055Z 16010KT 17/14 A2986 RMK A01 T01670140  RH  084%=      5-min Rain = 0
KEN1 201056Z 16010KT 17/14 A2986 RMK A01 T01670140  RH  084%=      5-min Rain = 0
KEN1 201057Z 16010KT 17/14 A2986 RMK A01 T01660140  RH  084%=      5-min Rain = 0
KEN1 201058Z 16009KT 17/14 A2986 RMK A01 T01650139  RH  085%=      5-min Rain = 0
KEN1 201059Z 16009KT 17/14 A2986 RMK A01 T01650139  RH  085%=      5-min Rain = 0
KEN1 201100Z 16009KT 16/14 A2986 RMK A01 T01640139  RH  085%=      5-min Rain = 0
KEN1 201101Z 16009KT 16/14 A2986 RMK A01 T01640139  RH  085%=      5-min Rain = 0
KEN1 201102Z 16009KT 16/14 A2986 RMK A01 T01630138  RH  085%=      5-min Rain = 0
KEN1 201103Z 16009KT 16/14 A2986 RMK A01 T01630139  RH  086%=      5-min Rain = 0
KEN1 201104Z 16009KT 16/14 A2986 RMK A01 T01620138  RH  086%=      5-min Rain = 0
KEN1 201105Z 16008KT 16/14 A2986 RMK A01 T01620138  RH  086%=      5-min Rain = 0
KEN1 201106Z 16008KT 16/14 A2986 RMK A01 T01620138  RH  086%=      5-min Rain = 0
KEN1 201107Z 16008KT 16/14 A2986 RMK A01 T01620138  RH  086%=      5-min Rain = 0
KEN1 201108Z 17008KT 16/14 A2986 RMK A01 T01610138  RH  086%=      5-min Rain = 0
KEN1 201109Z 17008KT 16/14 A2986 RMK A01 T01600137  RH  086%=      5-min Rain = 0
KEN1 201110Z 17008KT 16/14 A2986 RMK A01 T01600137  RH  086%=      5-min Rain = 0
KEN1 201111Z 17008KT 16/14 A2986 RMK A01 T01600137  RH  086%=      5-min Rain = 0
KEN1 201112Z 16008KT 16/14 A2986 RMK A01 T01590137  RH  087%=      5-min Rain = 0
KEN1 201113Z 16008KT 16/14 A2986 RMK A01 T01580136  RH  087%=      5-min Rain = 0
KEN1 201114Z 16007KT 16/14 A2986 RMK A01 T01580136  RH  087%=      5-min Rain = 0
KEN1 201115Z 16007KT 16/14 A2986 RMK A01 T01580136  RH  087%=      5-min Rain = 0
KEN1 201116Z 17006KT 16/14 A2986 RMK A01 T01570136  RH  087%=      5-min Rain = 0
KEN1 201117Z 17007KT 16/14 A2986 RMK A01 T01570135  RH  087%=      5-min Rain = 0
KEN1 201118Z 17007KT 16/13 A2986 RMK A01 T01560134  RH  087%=      5-min Rain = 0
KEN1 201119Z 17008KT 16/13 A2986 RMK A01 T01550134  RH  087%=      5-min Rain = 0
KEN1 201120Z 17008KT 16/13 A2986 RMK A01 T01550134  RH  087%=      5-min Rain = 0
KEN1 201121Z 17008KT 15/13 A2986 RMK A01 T01540134  RH  088%=      5-min Rain = 0
KEN1 201122Z 16007KT 15/13 A2986 RMK A01 T01540133  RH  088%=      5-min Rain = 0
KEN1 201123Z 16007KT 15/13 A2986 RMK A01 T01540133  RH  088%=      5-min Rain = 0
KEN1 201124Z 17006KT 15/13 A2986 RMK A01 T01530132  RH  087%=      5-min Rain = 0
KEN1 201125Z 16007KT 15/13 A2986 RMK A01 T01530132  RH  087%=      5-min Rain = 0
KEN1 201126Z 15008KT 15/13 A2986 RMK A01 T01540132  RH  087%=      5-min Rain = 0
KEN1 201127Z 15008KT 15/13 A2986 RMK A01 T01530131  RH  087%=      5-min Rain = 0
KEN1 201128Z 15007KT 15/13 A2986 RMK A01 T01530132  RH  087%=      5-min Rain = 0
KEN1 201129Z 15007KT 15/13 A2986 RMK A01 T01530132  RH  087%=      5-min Rain = 0
KEN1 201130Z 15006KT 15/13 A2986 RMK A01 T01530132  RH  087%=      5-min Rain = 0
KEN1 201131Z 15004KT 15/13 A2987 RMK A01 T01530132  RH  087%=      5-min Rain = 0
KEN1 201132Z 15003KT 15/13 A2987 RMK A01 T01530132  RH  087%=      5-min Rain = 0
KEN1 201133Z 15003KT 15/13 A2987 RMK A01 T01530132  RH  087%=      5-min Rain = 0
KEN1 201134Z 16005KT 15/13 A2987 RMK A01 T01530131  RH  087%=      5-min Rain = 0
KEN1 201135Z 16006KT 16/13 A2987 RMK A01 T01550132  RH  086%=      5-min Rain = 0
KEN1 201136Z 16007KT 16/13 A2987 RMK A01 T01550131  RH  086%=      5-min Rain = 0
KEN1 201137Z 16008KT 16/13 A2986 RMK A01 T01560131  RH  085%=      5-min Rain = 0
KEN1 201138Z 16008KT 16/13 A2986 RMK A01 T01560131  RH  085%=      5-min Rain = 0
KEN1 201139Z 17008KT 16/13 A2986 RMK A01 T01560130  RH  085%=      5-min Rain = 0
KEN1 201140Z 17007KT 16/13 A2986 RMK A01 T01550130  RH  085%=      5-min Rain = 0
KEN1 201141Z 18004KT 16/13 A2987 RMK A01 T01550130  RH  085%=      5-min Rain = 0
KEN1 201142Z 19002KT 15/13 A2987 RMK A01 T01540129  RH  085%=      5-min Rain = 0
KEN1 201143Z 19001KT 15/13 A2987 RMK A01 T01540130  RH  085%=      5-min Rain = 0
KEN1 201144Z 17002KT 15/13 A2987 RMK A01 T01540130  RH  085%=      5-min Rain = 0
KEN1 201145Z 16003KT 15/13 A2987 RMK A01 T01540130  RH  085%=      5-min Rain = 0
KEN1 201146Z 17004KT 16/13 A2987 RMK A01 T01550129  RH  085%=      5-min Rain = 0
KEN1 201147Z 17005KT 16/13 A2987 RMK A01 T01560129  RH  084%=      5-min Rain = 0
KEN1 201148Z 17005KT 16/13 A2987 RMK A01 T01560128  RH  083%=      5-min Rain = 0
KEN1 201149Z 17005KT 16/13 A2987 RMK A01 T01560127  RH  083%=      5-min Rain = 0
KEN1 201150Z 18005KT 16/13 A2987 RMK A01 T01550128  RH  084%=      5-min Rain = 0
KEN1 201151Z 17005KT 15/13 A2987 RMK A01 T01540127  RH  083%=      5-min Rain = 0
KEN1 201152Z 18004KT 16/13 A2987 RMK A01 T01560126  RH  082%=      5-min Rain = 0
KEN1 201153Z 19004KT 16/13 A2987 RMK A01 T01560126  RH  082%=      5-min Rain = 0
KEN1 201154Z 18004KT 16/13 A2987 RMK A01 T01570126  RH  082%=      5-min Rain = 0
KEN1 201155Z 18005KT 16/13 A2987 RMK A01 T01580126  RH  081%=      5-min Rain = 0
KEN1 201156Z 18005KT 16/13 A2987 RMK A01 T01590126  RH  081%=      5-min Rain = 0
KEN1 201157Z 18005KT 16/13 A2987 RMK A01 T01590126  RH  081%=      5-min Rain = 0
KEN1 201158Z 20003KT 16/13 A2987 RMK A01 T01590126  RH  081%=      5-min Rain = 0
KEN1 201159Z 21003KT 16/13 A2987 RMK A01 T01600126  RH  080%=      5-min Rain = 0
KEN1 201200Z 20004KT 16/13 A2987 RMK A01 T01600126  RH  080%=      5-min Rain = 0
KEN1 201201Z 19005KT 16/13 A2987 RMK A01 T01610126  RH  080%=      5-min Rain = 0
KEN1 201202Z 19005KT 16/13 A2987 RMK A01 T01620126  RH  079%=      5-min Rain = 0
KEN1 201203Z 19004KT 16/13 A2987 RMK A01 T01630127  RH  079%=      5-min Rain = 0
KEN1 201204Z 20003KT 16/13 A2987 RMK A01 T01630126  RH  079%=      5-min Rain = 0
KEN1 201205Z 21003KT 16/13 A2987 RMK A01 T01640126  RH  078%=      5-min Rain = 0
KEN1 201206Z 20004KT 17/13 A2987 RMK A01 T01650126  RH  078%=      5-min Rain = 0
KEN1 201207Z 19005KT 17/13 A2987 RMK A01 T01650126  RH  078%=      5-min Rain = 0
KEN1 201208Z 20004KT 17/13 A2987 RMK A01 T01650127  RH  078%=      5-min Rain = 0
KEN1 201209Z 20004KT 16/13 A2987 RMK A01 T01640127  RH  079%=      5-min Rain = 0
KEN1 201210Z 20003KT 16/13 A2987 RMK A01 T01640127  RH  079%=      5-min Rain = 0
KEN1 201211Z 21003KT 16/13 A2988 RMK A01 T01640127  RH  079%=      5-min Rain = 0
KEN1 201212Z 21003KT 16/13 A2988 RMK A01 T01640127  RH  079%=      5-min Rain = 0
KEN1 201213Z 21003KT 16/13 A2988 RMK A01 T01640127  RH  078%=      5-min Rain = 0
KEN1 201214Z 20004KT 17/13 A2987 RMK A01 T01650127  RH  078%=      5-min Rain = 0
KEN1 201215Z 20003KT 17/13 A2988 RMK A01 T01650127  RH  078%=      5-min Rain = 0
KEN1 201216Z 21002KT 17/13 A2988 RMK A01 T01650128  RH  079%=      5-min Rain = 0
KEN1 201217Z 22001KT 17/13 A2988 RMK A01 T01660129  RH  079%=      5-min Rain = 0
KEN1 201218Z 20001KT 17/13 A2988 RMK A01 T01670130  RH  079%=      5-min Rain = 0
KEN1 201219Z 18001KT 17/13 A2988 RMK A01 T01680131  RH  079%=      5-min Rain = 0
KEN1 201220Z 20001KT 17/13 A2988 RMK A01 T01680130  RH  078%=      5-min Rain = 0
KEN1 201221Z 22001KT 17/13 A2988 RMK A01 T01680128  RH  077%=      5-min Rain = 0
KEN1 201222Z 24001KT 17/13 A2988 RMK A01 T01690131  RH  078%=      5-min Rain = 0
KEN1 201223Z 27001KT 17/13 A2988 RMK A01 T01690133  RH  079%=      5-min Rain = 0
KEN1 201224Z 26001KT 17/13 A2988 RMK A01 T01680133  RH  079%=      5-min Rain = 0
KEN1 201225Z 25001KT 17/13 A2988 RMK A01 T01670131  RH  080%=      5-min Rain = 0
KEN1 201226Z 24001KT 17/13 A2988 RMK A01 T01660132  RH  080%=      5-min Rain = 0
KEN1 201227Z 25001KT 17/13 A2988 RMK A01 T01660132  RH  080%=      5-min Rain = 0
KEN1 201228Z 23001KT 17/13 A2988 RMK A01 T01660132  RH  080%=      5-min Rain = 0
KEN1 201229Z 22001KT 17/13 A2988 RMK A01 T01670132  RH  080%=      5-min Rain = 0
KEN1 201230Z 22001KT 17/13 A2988 RMK A01 T01680131  RH  079%=      5-min Rain = 0
KEN1 201231Z 21001KT 17/13 A2988 RMK A01 T01680130  RH  078%=      5-min Rain = 0
KEN1 201232Z 21001KT 17/13 A2988 RMK A01 T01690132  RH  079%=      5-min Rain = 0
KEN1 201233Z 21000KT 17/14 A2988 RMK A01 T01710135  RH  079%=      5-min Rain = 0
KEN1 201234Z 00000KT 17/14 A2988 RMK A01 T01740136  RH  078%=      5-min Rain = 0
KEN1 201235Z 00000KT 18/14 A2988 RMK A01 T01770135  RH  076%=      5-min Rain = 0
KEN1 201236Z 19001KT 18/13 A2988 RMK A01 T01790134  RH  075%=      5-min Rain = 0
KEN1 201237Z 18001KT 18/13 A2988 RMK A01 T01790132  RH  074%=      5-min Rain = 0
KEN1 201238Z 17001KT 18/13 A2988 RMK A01 T01790134  RH  075%=      5-min Rain = 0
KEN1 201239Z 18002KT 18/13 A2988 RMK A01 T01780134  RH  075%=      5-min Rain = 0
KEN1 201240Z 18002KT 18/13 A2988 RMK A01 T01770134  RH  076%=      5-min Rain = 0
KEN1 201241Z 18002KT 18/14 A2988 RMK A01 T01760135  RH  077%=      5-min Rain = 0
KEN1 201242Z 18002KT 18/13 A2988 RMK A01 T01760133  RH  076%=      5-min Rain = 0
KEN1 201243Z 17002KT 18/13 A2988 RMK A01 T01760134  RH  076%=      5-min Rain = 0
KEN1 201244Z 17003KT 18/13 A2988 RMK A01 T01760133  RH  076%=      5-min Rain = 0
KEN1 201245Z 16002KT 18/13 A2988 RMK A01 T01760134  RH  076%=      5-min Rain = 0
KEN1 201246Z 17003KT 18/13 A2988 RMK A01 T01780134  RH  076%=      5-min Rain = 0
KEN1 201247Z 21002KT 18/13 A2988 RMK A01 T01790128  RH  072%=      5-min Rain = 0
KEN1 201248Z 19001KT 18/13 A2988 RMK A01 T01810133  RH  073%=      5-min Rain = 0
KEN1 201249Z 22001KT 18/13 A2988 RMK A01 T01820134  RH  074%=      5-min Rain = 0
KEN1 201250Z 18002KT 18/13 A2988 RMK A01 T01830133  RH  073%=      5-min Rain = 0
KEN1 201251Z 18002KT 18/14 A2988 RMK A01 T01840136  RH  074%=      5-min Rain = 0
KEN1 201252Z 18003KT 18/14 A2988 RMK A01 T01840136  RH  074%=      5-min Rain = 0
KEN1 201253Z 18003KT 18/13 A2988 RMK A01 T01840134  RH  073%=      5-min Rain = 0
KEN1 201254Z 18004KT 18/14 A2988 RMK A01 T01840135  RH  073%=      5-min Rain = 0
KEN1 201255Z 18004KT 18/13 A2988 RMK A01 T01840134  RH  072%=      5-min Rain = 0
KEN1 201256Z 18004KT 18/14 A2988 RMK A01 T01840135  RH  073%=      5-min Rain = 0
KEN1 201257Z 20003KT 18/13 A2988 RMK A01 T01840132  RH  072%=      5-min Rain = 0
KEN1 201258Z 20003KT 18/13 A2988 RMK A01 T01840131  RH  071%=      5-min Rain = 0
KEN1 201259Z 21004KT 18/13 A2988 RMK A01 T01840132  RH  072%=      5-min Rain = 0
KEN1 201300Z 22004KT 18/13 A2988 RMK A01 T01840129  RH  070%=      5-min Rain = 0
KEN1 201301Z 23004KT 19/13 A2988 RMK A01 T01850130  RH  070%=      5-min Rain = 0
KEN1 201302Z 24004KT 19/13 A2988 RMK A01 T01850126  RH  068%=      5-min Rain = 0
KEN1 201303Z 24004KT 19/12 A2988 RMK A01 T01860124  RH  067%=      5-min Rain = 0
KEN1 201304Z 25005KT 19/12 A2988 RMK A01 T01870119  RH  065%=      5-min Rain = 0
KEN1 201305Z 25006KT 19/12 A2988 RMK A01 T01870118  RH  064%=      5-min Rain = 0
KEN1 201306Z 25006KT 19/12 A2988 RMK A01 T01880117  RH  063%=      5-min Rain = 0
KEN1 201307Z 26005KT 19/12 A2988 RMK A01 T01880116  RH  063%=      5-min Rain = 0
KEN1 201308Z 25004KT 19/12 A2988 RMK A01 T01880120  RH  065%=      5-min Rain = 0
KEN1 201309Z 25004KT 19/12 A2989 RMK A01 T01880123  RH  066%=      5-min Rain = 0
KEN1 201310Z 23004KT 19/12 A2989 RMK A01 T01890123  RH  066%=      5-min Rain = 0
KEN1 201311Z 24005KT 19/12 A2989 RMK A01 T01890123  RH  065%=      5-min Rain = 0
KEN1 201312Z 24004KT 19/12 A2989 RMK A01 T01890123  RH  065%=      5-min Rain = 0
KEN1 201313Z 23004KT 19/13 A2989 RMK A01 T01890125  RH  066%=      5-min Rain = 0
KEN1 201314Z 23004KT 19/13 A2989 RMK A01 T01900126  RH  066%=      5-min Rain = 0
KEN1 201315Z 23004KT 19/13 A2989 RMK A01 T01910126  RH  066%=      5-min Rain = 0
KEN1 201316Z 23004KT 19/12 A2989 RMK A01 T01920122  RH  064%=      5-min Rain = 0
KEN1 201317Z 24005KT 19/12 A2989 RMK A01 T01930122  RH  064%=      5-min Rain = 0
KEN1 201318Z 23005KT 20/12 A2989 RMK A01 T01950118  RH  061%=      5-min Rain = 0
KEN1 201319Z 22004KT 20/12 A2989 RMK A01 T01960122  RH  063%=      5-min Rain = 0
KEN1 201320Z 22004KT 20/13 A2989 RMK A01 T01960125  RH  063%=      5-min Rain = 0
KEN1 201321Z 22004KT 20/12 A2989 RMK A01 T01980123  RH  062%=      5-min Rain = 0
KEN1 201322Z 22004KT 20/12 A2989 RMK A01 T01990121  RH  061%=      5-min Rain = 0
KEN1 201323Z 22004KT 20/12 A2989 RMK A01 T02010119  RH  059%=      5-min Rain = 0
KEN1 201324Z 21004KT 20/12 A2989 RMK A01 T02020117  RH  058%=      5-min Rain = 0
KEN1 201325Z 22004KT 20/12 A2989 RMK A01 T02030116  RH  057%=      5-min Rain = 0
KEN1 201326Z 21004KT 20/12 A2989 RMK A01 T02040116  RH  057%=      5-min Rain = 0
KEN1 201327Z 21003KT 21/12 A2989 RMK A01 T02050116  RH  057%=      5-min Rain = 0
KEN1 201328Z 21003KT 21/12 A2989 RMK A01 T02060115  RH  056%=      5-min Rain = 0
KEN1 201329Z 21003KT 21/11 A2989 RMK A01 T02070114  RH  055%=      5-min Rain = 0
KEN1 201330Z 20003KT 21/11 A2989 RMK A01 T02080112  RH  054%=      5-min Rain = 0
KEN1 201331Z 21004KT 21/11 A2989 RMK A01 T02100113  RH  054%=      5-min Rain = 0
KEN1 201332Z 22005KT 21/11 A2989 RMK A01 T02120105  RH  051%=      5-min Rain = 0
KEN1 201333Z 21005KT 21/10 A2989 RMK A01 T02130104  RH  050%=      5-min Rain = 0
KEN1 201334Z 22006KT 22/10 A2989 RMK A01 T02150098  RH  047%=      5-min Rain = 0
KEN1 201335Z 22005KT 22/10 A2989 RMK A01 T02170102  RH  048%=      5-min Rain = 0
KEN1 201336Z 21005KT 22/11 A2989 RMK A01 T02180105  RH  049%=      5-min Rain = 0
KEN1 201337Z 22004KT 22/11 A2989 RMK A01 T02190108  RH  049%=      5-min Rain = 0
KEN1 201338Z 22005KT 22/11 A2989 RMK A01 T02200108  RH  049%=      5-min Rain = 0
KEN1 201339Z 22007KT 22/10 A299 RMK A01 T02210103  RH  047%=      5-min Rain = 0
KEN1 201340Z 21007KT 22/10 A299 RMK A01 T02220100  RH  046%=      5-min Rain = 0
KEN1 201341Z 22007KT 22/10 A299 RMK A01 T02240099  RH  045%=      5-min Rain = 0
KEN1 201342Z 22006KT 23/10 A299 RMK A01 T02250096  RH  044%=      5-min Rain = 0
KEN1 201343Z 22007KT 23/10 A299 RMK A01 T02260103  RH  046%=      5-min Rain = 0
KEN1 201344Z 22006KT 23/11 A299 RMK A01 T02250105  RH  046%=      5-min Rain = 0
KEN1 201345Z 23005KT 23/11 A299 RMK A01 T02260109  RH  048%=      5-min Rain = 0
KEN1 201346Z 23005KT 23/12 A299 RMK A01 T02260115  RH  049%=      5-min Rain = 0
KEN1 201347Z 25008KT 23/11 A299 RMK A01 T02280107  RH  046%=      5-min Rain = 0
KEN1 201348Z 24006KT 23/09 A299 RMK A01 T02300094  RH  042%=      5-min Rain = 0
KEN1 201349Z 24007KT 23/10 A299 RMK A01 T02330098  RH  042%=      5-min Rain = 0
KEN1 201350Z 25007KT 24/09 A299 RMK A01 T02350093  RH  040%=      5-min Rain = 0
KEN1 201351Z 24005KT 24/10 A299 RMK A01 T02360095  RH  041%=      5-min Rain = 0
KEN1 201352Z 24006KT 24/10 A299 RMK A01 T02360096  RH  041%=      5-min Rain = 0
KEN1 201353Z 25007KT 24/09 A299 RMK A01 T02380091  RH  039%=      5-min Rain = 0
KEN1 201354Z 26008KT 24/09 A299 RMK A01 T02390090  RH  039%=      5-min Rain = 0
KEN1 201355Z 24007KT 24/08 A299 RMK A01 T02400080  RH  036%=      5-min Rain = 0
KEN1 201356Z 25009KT 24/08 A299 RMK A01 T02410077  RH  035%=      5-min Rain = 0
KEN1 201357Z 26008KT 24/07 A299 RMK A01 T02420074  RH  034%=      5-min Rain = 0
KEN1 201358Z 26008KT 24/07 A2991 RMK A01 T02420071  RH  033%=      5-min Rain = 0
KEN1 201359Z 26008KT 24/07 A2991 RMK A01 T02430073  RH  034%=      5-min Rain = 0
KEN1 201400Z 27006KT 24/08 A299 RMK A01 T02430075  RH  034%=      5-min Rain = 0
KEN1 201401Z 27008KT 25/07 A299 RMK A01 T02450074  RH  034%=      5-min Rain = 0
KEN1 201402Z 27009KT 25/06 A299 RMK A01 T02450063  RH  031%=      5-min Rain = 0
KEN1 201403Z 27007KT 25/07 A299 RMK A01 T02450065  RH  032%=      5-min Rain = 0
KEN1 201404Z 27006KT 25/07 A299 RMK A01 T02450073  RH  033%=      5-min Rain = 0
KEN1 201405Z 27006KT 25/07 A299 RMK A01 T02470072  RH  032%=      5-min Rain = 0
KEN1 201406Z 27006KT 25/07 A299 RMK A01 T02480066  RH  031%=      5-min Rain = 0
KEN1 201407Z 26006KT 25/06 A299 RMK A01 T02480064  RH  031%=      5-min Rain = 0
KEN1 201408Z 25005KT 25/07 A299 RMK A01 T02480068  RH  032%=      5-min Rain = 0
KEN1 201409Z 27004KT 25/08 A299 RMK A01 T02490075  RH  033%=      5-min Rain = 0
KEN1 201410Z 27005KT 25/07 A299 RMK A01 T02500071  RH  032%=      5-min Rain = 0
KEN1 201411Z 25006KT 25/07 A299 RMK A01 T02520067  RH  031%=      5-min Rain = 0
KEN1 201412Z 26006KT 25/07 A299 RMK A01 T02530067  RH  030%=      5-min Rain = 0
KEN1 201413Z 26005KT 25/07 A299 RMK A01 T02540071  RH  031%=      5-min Rain = 0
KEN1 201414Z 25006KT 26/07 A299 RMK A01 T02560067  RH  030%=      5-min Rain = 0
KEN1 201415Z 25004KT 26/07 A299 RMK A01 T02570069  RH  030%=      5-min Rain = 0
KEN1 201416Z 25004KT 26/07 A299 RMK A01 T02580073  RH  031%=      5-min Rain = 0
KEN1 201417Z 25006KT 26/07 A299 RMK A01 T02590068  RH  030%=      5-min Rain = 0
KEN1 201418Z 25006KT 26/08 A299 RMK A01 T02590075  RH  031%=      5-min Rain = 0
KEN1 201419Z 24007KT 26/07 A299 RMK A01 T02610070  RH  030%=      5-min Rain = 0
KEN1 201420Z 24007KT 26/07 A299 RMK A01 T02610066  RH  029%=      5-min Rain = 0
KEN1 201421Z 25009KT 26/06 A299 RMK A01 T02620062  RH  028%=      5-min Rain = 0
KEN1 201422Z 25008KT 26/06 A299 RMK A01 T02620064  RH  028%=      5-min Rain = 0
KEN1 201423Z 25008KT 26/06 A299 RMK A01 T02620062  RH  028%=      5-min Rain = 0
KEN1 201424Z 25009KT 26/06 A299 RMK A01 T02620064  RH  028%=      5-min Rain = 0
KEN1 201425Z 23005KT 26/07 A299 RMK A01 T02630068  RH  029%=      5-min Rain = 0
KEN1 201426Z 23007KT 27/07 A299 RMK A01 T02650073  RH  029%=      5-min Rain = 0
KEN1 201427Z 24008KT 27/06 A299 RMK A01 T02670063  RH  027%=      5-min Rain = 0
KEN1 201428Z 24007KT 27/07 A299 RMK A01 T02670067  RH  028%=      5-min Rain = 0
KEN1 201429Z 23007KT 27/07 A299 RMK A01 T02680069  RH  028%=      5-min Rain = 0
KEN1 201430Z 22006KT 27/07 A299 RMK A01 T02680070  RH  028%=      5-min Rain = 0
KEN1 201431Z 22008KT 27/07 A299 RMK A01 T02690073  RH  029%=      5-min Rain = 0
KEN1 201432Z 24008KT 27/07 A299 RMK A01 T02710068  RH  027%=      5-min Rain = 0
KEN1 201433Z 24008KT 27/06 A299 RMK A01 T02730060  RH  026%=      5-min Rain = 0
KEN1 201434Z 24008KT 27/06 A299 RMK A01 T02740064  RH  026%=      5-min Rain = 0
KEN1 201435Z 23007KT 28/07 A299 RMK A01 T02750065  RH  026%=      5-min Rain = 0
KEN1 201436Z 24008KT 28/07 A299 RMK A01 T02770069  RH  027%=      5-min Rain = 0
KEN1 201437Z 24007KT 28/07 A299 RMK A01 T02790070  RH  027%=      5-min Rain = 0
KEN1 201438Z 23006KT 28/06 A299 RMK A01 T02800062  RH  025%=      5-min Rain = 0
KEN1 201439Z 22007KT 28/06 A299 RMK A01 T02800064  RH  025%=      5-min Rain = 0
KEN1 201440Z 23009KT 28/06 A299 RMK A01 T02800064  RH  025%=      5-min Rain = 0
KEN1 201441Z 23008KT 28/06 A299 RMK A01 T02810063  RH  025%=      5-min Rain = 0
KEN1 201442Z 25009KT 28/06 A299 RMK A01 T02820061  RH  025%=      5-min Rain = 0
KEN1 201443Z 25011KT 28/06 A299 RMK A01 T02830055  RH  023%=      5-min Rain = 0
KEN1 201444Z 24011KT 28/05 A299 RMK A01 T02840053  RH  023%=      5-min Rain = 0
KEN1 201445Z 24010KT 29/06 A299 RMK A01 T02850057  RH  024%=      5-min Rain = 0
KEN1 201446Z 24012KT 29/05 A299 RMK A01 T02870054  RH  023%=      5-min Rain = 0
KEN1 201447Z 25010KT 29/06 A299 RMK A01 T02870058  RH  023%=      5-min Rain = 0
KEN1 201448Z 24010KT 29/07 A299 RMK A01 T02890067  RH  025%=      5-min Rain = 0
KEN1 201449Z 25009KT 29/06 A299 RMK A01 T02910061  RH  023%=      5-min Rain = 0
KEN1 201450Z 24008KT 29/06 A299 RMK A01 T02910063  RH  024%=      5-min Rain = 0
KEN1 201451Z 24009KT 29/07 A299 RMK A01 T02920068  RH  024%=      5-min Rain = 0
KEN1 201452Z 25011KT 29/06 A299 RMK A01 T02940062  RH  023%=      5-min Rain = 0
KEN1 201453Z 26009KT 29/06 A299 RMK A01 T02940062  RH  023%=      5-min Rain = 0
KEN1 201454Z 26009KT 30/07 A299 RMK A01 T02950067  RH  024%=      5-min Rain = 0
KEN1 201455Z 26009KT 30/07 A299 RMK A01 T02960066  RH  023%=      5-min Rain = 0
KEN1 201456Z 26009KT 30/07 A299 RMK A01 T02960067  RH  024%=      5-min Rain = 0
KEN1 201457Z 27008KT 30/07 A299 RMK A01 T02970068  RH  024%=      5-min Rain = 0
KEN1 201458Z 26009KT 30/06 A299 RMK A01 T02970061  RH  023%=      5-min Rain = 0
KEN1 201459Z 25011KT 30/06 A299 RMK A01 T02970064  RH  023%=      5-min Rain = 0
KEN1 201500Z 26012KT 30/06 A2989 RMK A01 T02980057  RH  022%=      5-min Rain = 0
KEN1 201501Z 26011KT 30/05 A2989 RMK A01 T02980051  RH  021%=      5-min Rain = 0
KEN1 201502Z 26011G17KT 30/06 A2989 RMK A01 T02970060  RH  022%=      5-min Rain = 0
KEN1 201503Z 27015KT 30/05 A2989 RMK A01 T02980052  RH  021%=      5-min Rain = 0
KEN1 201504Z 27012KT 30/05 A2989 RMK A01 T02980053  RH  021%=      5-min Rain = 0
KEN1 201505Z 27013KT 30/05 A2989 RMK A01 T02990053  RH  021%=      5-min Rain = 0
KEN1 201506Z 27013KT 30/05 A2989 RMK A01 T02990054  RH  021%=      5-min Rain = 0
KEN1 201507Z 26013KT 30/06 A2989 RMK A01 T03000057  RH  022%=      5-min Rain = 0
KEN1 201508Z 26014KT 30/06 A2989 RMK A01 T03010057  RH  021%=      5-min Rain = 0
KEN1 201509Z 26014KT 30/05 A2989 RMK A01 T03010052  RH  021%=      5-min Rain = 0
KEN1 201510Z 26014KT 30/05 A2989 RMK A01 T03020053  RH  021%=      5-min Rain = 0
KEN1 201511Z 26015KT 30/05 A2989 RMK A01 T03010053  RH  021%=      5-min Rain = 0
KEN1 201512Z 27015KT 30/05 A2989 RMK A01 T03020048  RH  020%=      5-min Rain = 0
KEN1 201513Z 27014KT 30/05 A2989 RMK A01 T03020052  RH  021%=      5-min Rain = 0
KEN1 201514Z 28013KT 30/05 A2989 RMK A01 T03020054  RH  021%=      5-min Rain = 0
KEN1 201515Z 27012KT 30/06 A2989 RMK A01 T03030055  RH  021%=      5-min Rain = 0
KEN1 201516Z 26011KT 30/06 A2989 RMK A01 T03040059  RH  022%=      5-min Rain = 0
KEN1 201517Z 26015KT 31/06 A2989 RMK A01 T03050058  RH  021%=      5-min Rain = 0
KEN1 201518Z 27017KT 31/05 A2989 RMK A01 T03060051  RH  020%=      5-min Rain = 0
KEN1 201519Z 27017KT 30/05 A2989 RMK A01 T03040049  RH  020%=      5-min Rain = 0
KEN1 201520Z 27016KT 31/05 A2989 RMK A01 T03050050  RH  020%=      5-min Rain = 0
KEN1 201521Z 27012KT 31/06 A2989 RMK A01 T03050055  RH  021%=      5-min Rain = 0
KEN1 201522Z 26015KT 31/06 A2989 RMK A01 T03060055  RH  021%=      5-min Rain = 0
KEN1 201523Z 27016KT 31/05 A2989 RMK A01 T03070053  RH  020%=      5-min Rain = 0
KEN1 201524Z 27015KT 31/05 A2989 RMK A01 T03060051  RH  020%=      5-min Rain = 0
KEN1 201525Z 27015KT 31/05 A2989 RMK A01 T03070054  RH  020%=      5-min Rain = 0
KEN1 201526Z 27013KT 31/05 A2989 RMK A01 T03060053  RH  020%=      5-min Rain = 0
KEN1 201527Z 26016KT 31/06 A2989 RMK A01 T03070056  RH  021%=      5-min Rain = 0
KEN1 201528Z 26016KT 31/05 A2989 RMK A01 T03090052  RH  020%=      5-min Rain = 0
KEN1 201529Z 26014KT 31/05 A2989 RMK A01 T03090053  RH  020%=      5-min Rain = 0
KEN1 201530Z 27014KT 31/06 A2989 RMK A01 T03080056  RH  020%=      5-min Rain = 0
KEN1 201531Z 27015KT 31/05 A2989 RMK A01 T03090053  RH  020%=      5-min Rain = 0
KEN1 201532Z 28015KT 31/05 A2989 RMK A01 T03090051  RH  020%=      5-min Rain = 0
KEN1 201533Z 27015KT 31/05 A2989 RMK A01 T03090049  RH  019%=      5-min Rain = 0
KEN1 201534Z 28014KT 31/05 A2988 RMK A01 T03090049  RH  019%=      5-min Rain = 0
KEN1 201535Z 28014KT 31/05 A2988 RMK A01 T03090050  RH  020%=      5-min Rain = 0
KEN1 201536Z 28015KT 31/05 A2988 RMK A01 T03100052  RH  020%=      5-min Rain = 0
KEN1 201537Z 28013KT 31/05 A2988 RMK A01 T03110051  RH  019%=      5-min Rain = 0
KEN1 201538Z 29015KT 31/05 A2988 RMK A01 T03110054  RH  020%=      5-min Rain = 0
KEN1 201539Z 28014KT 31/05 A2988 RMK A01 T03120054  RH  020%=      5-min Rain = 0
KEN1 201540Z 29014KT 31/06 A2988 RMK A01 T03130055  RH  020%=      5-min Rain = 0
KEN1 201541Z 28013KT 31/06 A2988 RMK A01 T03130057  RH  020%=      5-min Rain = 0
KEN1 201542Z 28014KT 32/06 A2988 RMK A01 T03150059  RH  020%=      5-min Rain = 0
KEN1 201543Z 28013KT 32/06 A2988 RMK A01 T03160056  RH  020%=      5-min Rain = 0
KEN1 201544Z 29015KT 32/05 A2988 RMK A01 T03170054  RH  019%=      5-min Rain = 0
KEN1 201545Z 27012KT 32/06 A2988 RMK A01 T03160057  RH  020%=      5-min Rain = 0
KEN1 201546Z 26014KT 32/06 A2988 RMK A01 T03170060  RH  020%=      5-min Rain = 0
KEN1 201547Z 26014KT 32/06 A2988 RMK A01 T03180055  RH  019%=      5-min Rain = 0
KEN1 201548Z 26012KT 32/06 A2988 RMK A01 T03180055  RH  019%=      5-min Rain = 0
KEN1 201549Z 26012KT 32/06 A2988 RMK A01 T03180055  RH  019%=      5-min Rain = 0
KEN1 201550Z 26011KT 32/06 A2988 RMK A01 T03180061  RH  020%=      5-min Rain = 0
KEN1 201551Z 26013KT 32/07 A2988 RMK A01 T03200065  RH  020%=      5-min Rain = 0
KEN1 201552Z 27013KT 32/06 A2988 RMK A01 T03210055  RH  019%=      5-min Rain = 0
KEN1 201553Z 27015KT 32/06 A2988 RMK A01 T03210058  RH  019%=      5-min Rain = 0
KEN1 201554Z 28012KT 32/06 A2988 RMK A01 T03210058  RH  019%=      5-min Rain = 0
KEN1 201555Z 27013KT 32/06 A2988 RMK A01 T03210060  RH  020%=      5-min Rain = 0
KEN1 201556Z 27014KT 32/06 A2988 RMK A01 T03220059  RH  019%=      5-min Rain = 0
KEN1 201557Z 27014KT 32/06 A2988 RMK A01 T03220058  RH  019%=      5-min Rain = 0
KEN1 201558Z 27012KT 32/06 A2988 RMK A01 T03210055  RH  019%=      5-min Rain = 0
KEN1 201559Z 27013KT 32/06 A2988 RMK A01 T03210057  RH  019%=      5-min Rain = 0
KEN1 201600Z 28014KT 32/06 A2988 RMK A01 T03220058  RH  019%=      5-min Rain = 0
KEN1 201601Z 27013KT 32/06 A2988 RMK A01 T03240059  RH  019%=      5-min Rain = 0
KEN1 201602Z 28013KT 33/06 A2988 RMK A01 T03250057  RH  019%=      5-min Rain = 0
KEN1 201603Z 28011KT 33/06 A2988 RMK A01 T03250060  RH  019%=      5-min Rain = 0
KEN1 201604Z 27010KT 33/06 A2988 RMK A01 T03260060  RH  019%=      5-min Rain = 0
KEN1 201605Z 27012KT 33/06 A2987 RMK A01 T03270061  RH  019%=      5-min Rain = 0
KEN1 201606Z 26010KT 33/06 A2987 RMK A01 T03280063  RH  019%=      5-min Rain = 0
KEN1 201607Z 26011KT 33/07 A2987 RMK A01 T03290066  RH  020%=      5-min Rain = 0
KEN1 201608Z 28013KT 33/06 A2987 RMK A01 T03300061  RH  019%=      5-min Rain = 0
KEN1 201609Z 27013KT 33/06 A2987 RMK A01 T03290056  RH  018%=      5-min Rain = 0
KEN1 201610Z 27011KT 33/06 A2987 RMK A01 T03280060  RH  019%=      5-min Rain = 0
KEN1 201611Z 28012KT 33/06 A2987 RMK A01 T03280058  RH  019%=      5-min Rain = 0
KEN1 201612Z 27013KT 33/06 A2987 RMK A01 T03280061  RH  019%=      5-min Rain = 0
KEN1 201613Z 26014KT 33/06 A2987 RMK A01 T03300062  RH  019%=      5-min Rain = 0
KEN1 201614Z 26012KT 33/05 A2987 RMK A01 T03310054  RH  018%=      5-min Rain = 0
KEN1 201615Z 26013KT 33/05 A2987 RMK A01 T03300054  RH  018%=      5-min Rain = 0
KEN1 201616Z 26012KT 33/06 A2987 RMK A01 T03290056  RH  018%=      5-min Rain = 0
KEN1 201617Z 26014KT 33/05 A2987 RMK A01 T03290051  RH  018%=      5-min Rain = 0
KEN1 201618Z 27011KT 33/06 A2987 RMK A01 T03290055  RH  018%=      5-min Rain = 0
KEN1 201619Z 26013KT 33/05 A2987 RMK A01 T03290052  RH  018%=      5-min Rain = 0
KEN1 201620Z 27010KT 33/06 A2987 RMK A01 T03290056  RH  018%=      5-min Rain = 0
KEN1 201621Z 27009KT 33/06 A2987 RMK A01 T03310058  RH  018%=      5-min Rain = 0
KEN1 201622Z 28010KT 33/06 A2987 RMK A01 T03310058  RH  018%=      5-min Rain = 0
KEN1 201623Z 28012KT 33/06 A2987 RMK A01 T03320062  RH  019%=      5-min Rain = 0
KEN1 201624Z 27010KT 33/06 A2987 RMK A01 T03340055  RH  018%=      5-min Rain = 0
KEN1 201625Z 27010KT 34/06 A2987 RMK A01 T03350056  RH  018%=      5-min Rain = 0
KEN1 201626Z 27011KT 34/05 A2987 RMK A01 T03350050  RH  017%=      5-min Rain = 0
KEN1 201627Z 27012KT 33/05 A2987 RMK A01 T03340051  RH  017%=      5-min Rain = 0
KEN1 201628Z 27012KT 33/05 A2987 RMK A01 T03330046  RH  016%=      5-min Rain = 0
KEN1 201629Z 28011KT 33/06 A2987 RMK A01 T03330056  RH  018%=      5-min Rain = 0
KEN1 201630Z 27013KT 33/05 A2987 RMK A01 T03340053  RH  017%=      5-min Rain = 0
KEN1 201631Z 27013KT 34/05 A2987 RMK A01 T03350048  RH  017%=      5-min Rain = 0
KEN1 201632Z 27011KT 34/05 A2987 RMK A01 T03350050  RH  017%=      5-min Rain = 0
KEN1 201633Z 26012KT 34/05 A2987 RMK A01 T03360053  RH  017%=      5-min Rain = 0
KEN1 201634Z 27013KT 34/05 A2987 RMK A01 T03380048  RH  016%=      5-min Rain = 0
KEN1 201635Z 26011KT 34/04 A2987 RMK A01 T03380039  RH  015%=      5-min Rain = 0
KEN1 201641Z 26011KT 35/05 A2987 RMK A01 T03450047  RH  016%=      5-min Rain = 0
KEN1 201642Z 26010KT 34/05 A2987 RMK A01 T03440053  RH  016%=      5-min Rain = 0
KEN1 201643Z 25011KT 35/05 A2987 RMK A01 T03450045  RH  015%=      5-min Rain = 0
KEN1 201644Z 26011KT 34/04 A2987 RMK A01 T03430039  RH  015%=      5-min Rain = 0
KEN1 201645Z 27009KT 34/05 A2987 RMK A01 T03410045  RH  016%=      5-min Rain = 0
KEN1 201646Z 27007KT 34/05 A2987 RMK A01 T03400045  RH  016%=      5-min Rain = 0
KEN1 201647Z 27006KT 34/05 A2987 RMK A01 T03400047  RH  016%=      5-min Rain = 0
KEN1 201648Z 27006KT 34/05 A2987 RMK A01 T03410050  RH  016%=      5-min Rain = 0
KEN1 201649Z 27010KT 34/05 A2987 RMK A01 T03440049  RH  016%=      5-min Rain = 0
KEN1 201650Z 26009KT 35/04 A2987 RMK A01 T03460036  RH  014%=      5-min Rain = 0
KEN1 201651Z 27010KT 35/04 A2987 RMK A01 T03450036  RH  015%=      5-min Rain = 0
KEN1 201652Z 25008KT 34/04 A2987 RMK A01 T03420036  RH  015%=      5-min Rain = 0
KEN1 201653Z 27008KT 34/04 A2987 RMK A01 T03410041  RH  015%=      5-min Rain = 0
KEN1 201654Z 28010KT 34/05 A2987 RMK A01 T03430047  RH  016%=      5-min Rain = 0
KEN1 201655Z 27008KT 35/04 A2987 RMK A01 T03450043  RH  015%=      5-min Rain = 0
KEN1 201656Z 26011KT 35/04 A2987 RMK A01 T03460038  RH  015%=      5-min Rain = 0
KEN1 201657Z 26009KT 35/02 A2987 RMK A01 T03450018  RH  013%=      5-min Rain = 0
KEN1 201658Z 25013KT 34/03 A2987 RMK A01 T03430028  RH  014%=      5-min Rain = 0
KEN1 201659Z 26012KT 34/02 A2987 RMK A01 T03430018  RH  013%=      5-min Rain = 0
KEN1 201700Z 27010KT 34/02 A2987 RMK A01 T03440024  RH  013%=      5-min Rain = 0
KEN1 201701Z 28012KT 35/03 A2987 RMK A01 T03450029  RH  014%=      5-min Rain = 0
KEN1 201702Z 27008KT 35/02 A2987 RMK A01 T03450020  RH  013%=      5-min Rain = 0
KEN1 201703Z 29009KT 34/03 A2987 RMK A01 T03440030  RH  014%=      5-min Rain = 0
KEN1 201704Z 27008KT 34/02 A2987 RMK A01 T03440019  RH  013%=      5-min Rain = 0
KEN1 201705Z 26006KT 34/03 A2987 RMK A01 T03430027  RH  014%=      5-min Rain = 0
KEN1 201706Z 25004KT 34/04 A2987 RMK A01 T03430035  RH  015%=      5-min Rain = 0
KEN1 201707Z 25006KT 35/03 A2987 RMK A01 T03450033  RH  014%=      5-min Rain = 0
KEN1 201708Z 25013KT 35/03 A2987 RMK A01 T03460028  RH  014%=      5-min Rain = 0
KEN1 201709Z 26013KT 35/03 A2987 RMK A01 T03470025  RH  013%=      5-min Rain = 0
KEN1 201710Z 27014KT 35/03 A2987 RMK A01 T03490025  RH  013%=      5-min Rain = 0
KEN1 201711Z 28011G16KT 35/02 A2987 RMK A01 T03480022  RH  013%=      5-min Rain = 0
KEN1 201712Z 25011KT 35/02 A2987 RMK A01 T03470021  RH  013%=      5-min Rain = 0
KEN1 201713Z 27010KT 35/02 A2987 RMK A01 T03470019  RH  013%=      5-min Rain = 0
KEN1 201714Z 28012KT 35/02 A2987 RMK A01 T03470022  RH  013%=      5-min Rain = 0
KEN1 201715Z 27014KT 35/02 A2987 RMK A01 T03470022  RH  013%=      5-min Rain = 0
KEN1 201716Z 28013KT 35/02 A2987 RMK A01 T03470020  RH  013%=      5-min Rain = 0
KEN1 201717Z 30011KT 35/02 A2987 RMK A01 T03470022  RH  013%=      5-min Rain = 0
KEN1 201718Z 29012KT 35/02 A2987 RMK A01 T03480024  RH  013%=      5-min Rain = 0
KEN1 201719Z 29009KT 35/02 A2986 RMK A01 T03490021  RH  013%=      5-min Rain = 0
KEN1 201720Z 28012KT 35/02 A2986 RMK A01 T03490024  RH  013%=      5-min Rain = 0
KEN1 201721Z 29010KT 35/03 A2987 RMK A01 T03490027  RH  013%=      5-min Rain = 0
KEN1 201722Z 26010KT 35/03 A2987 RMK A01 T03490030  RH  014%=      5-min Rain = 0
KEN1 201723Z 26012KT 35/03 A2986 RMK A01 T03510027  RH  013%=      5-min Rain = 0
KEN1 201724Z 28011KT 35/03 A2986 RMK A01 T03490027  RH  013%=      5-min Rain = 0
KEN1 201725Z 27011KT 35/03 A2986 RMK A01 T03490031  RH  014%=      5-min Rain = 0
KEN1 201726Z 27013G18KT 35/04 A2986 RMK A01 T03510037  RH  014%=      5-min Rain = 0
KEN1 201727Z 27012KT 35/03 A2986 RMK A01 T03520034  RH  014%=      5-min Rain = 0
KEN1 201728Z 31011KT 35/04 A2986 RMK A01 T03510037  RH  014%=      5-min Rain = 0
KEN1 201729Z 28011KT 35/04 A2986 RMK A01 T03530039  RH  014%=      5-min Rain = 0
KEN1 201730Z 28014G20KT 35/04 A2986 RMK A01 T03540037  RH  014%=      5-min Rain = 0
KEN1 201731Z 28017G22KT 35/03 A2986 RMK A01 T03530027  RH  013%=      5-min Rain = 0
KEN1 201732Z 29016KT 35/03 A2986 RMK A01 T03510029  RH  013%=      5-min Rain = 0
KEN1 201733Z 30016KT 35/03 A2986 RMK A01 T03510030  RH  013%=      5-min Rain = 0
KEN1 201734Z 30016KT 35/03 A2986 RMK A01 T03530033  RH  013%=      5-min Rain = 0
KEN1 201735Z 29016KT 35/03 A2986 RMK A01 T03520029  RH  013%=      5-min Rain = 0
KEN1 201736Z 25012G17KT 35/03 A2987 RMK A01 T03510025  RH  013%=      5-min Rain = 0
KEN1 201737Z 24010KT 35/02 A2986 RMK A01 T03500020  RH  013%=      5-min Rain = 0
KEN1 201738Z 24009KT 35/01 A2986 RMK A01 T03470014  RH  012%=      5-min Rain = 0
KEN1 201739Z 25009KT 35/02 A2986 RMK A01 T03460020  RH  013%=      5-min Rain = 0
KEN1 201740Z 25013G18KT 35/03 A2986 RMK A01 T03470026  RH  013%=      5-min Rain = 0
KEN1 201741Z 28014KT 35/03 A2986 RMK A01 T03500027  RH  013%=      5-min Rain = 0
KEN1 201742Z 28012KT 35/03 A2986 RMK A01 T03510030  RH  013%=      5-min Rain = 0
KEN1 201743Z 27013G18KT 35/03 A2986 RMK A01 T03520025  RH  013%=      5-min Rain = 0
KEN1 201744Z 28016KT 35/03 A2986 RMK A01 T03510026  RH  013%=      5-min Rain = 0
KEN1 201745Z 29011KT 35/02 A2986 RMK A01 T03500015  RH  012%=      5-min Rain = 0
KEN1 201746Z 28009KT 35/02 A2986 RMK A01 T03470019  RH  013%=      5-min Rain = 0
KEN1 201747Z 26009KT 35/03 A2986 RMK A01 T03470028  RH  013%=      5-min Rain = 0
KEN1 201748Z 26009KT 35/03 A2986 RMK A01 T03500032  RH  014%=      5-min Rain = 0
KEN1 201749Z 29012KT 35/04 A2986 RMK A01 T03540038  RH  014%=      5-min Rain = 0
KEN1 201750Z 30010KT 35/02 A2986 RMK A01 T03530021  RH  012%=      5-min Rain = 0
KEN1 201751Z 27006KT 35/02 A2986 RMK A01 T03480021  RH  013%=      5-min Rain = 0
KEN1 201752Z 27011KT 35/03 A2986 RMK A01 T03480026  RH  013%=      5-min Rain = 0
KEN1 201753Z 28010KT 35/02 A2986 RMK A01 T03500021  RH  013%=      5-min Rain = 0
KEN1 201754Z 28007G12KT 35/02 A2986 RMK A01 T03490024  RH  013%=      5-min Rain = 0
KEN1 201755Z 27010KT 35/03 A2986 RMK A01 T03490028  RH  013%=      5-min Rain = 0
KEN1 201756Z 29007KT 35/03 A2986 RMK A01 T03500027  RH  013%=      5-min Rain = 0
KEN1 201757Z 28004KT 35/02 A2986 RMK A01 T03500022  RH  013%=      5-min Rain = 0
KEN1 201758Z 30003KT 35/02 A2985 RMK A01 T03500023  RH  013%=      5-min Rain = 0
KEN1 201759Z 30005KT 35/03 A2985 RMK A01 T03500027  RH  013%=      5-min Rain = 0
KEN1 201800Z 28006KT 35/04 A2985 RMK A01 T03520040  RH  014%=      5-min Rain = 0
KEN1 201801Z 26008KT 36/04 A2985 RMK A01 T03560036  RH  014%=      5-min Rain = 0
KEN1 201802Z 27014KT 36/03 A2985 RMK A01 T03570033  RH  013%=      5-min Rain = 0
KEN1 201803Z 27017G26KT 36/04 A2986 RMK A01 T03600040  RH  014%=      5-min Rain = 0
KEN1 201804Z 28019G24KT 36/03 A2986 RMK A01 T03600027  RH  012%=      5-min Rain = 0
KEN1 201805Z 28015KT 36/03 A2986 RMK A01 T03570025  RH  013%=      5-min Rain = 0
KEN1 201806Z 28010KT 35/03 A2986 RMK A01 T03530025  RH  013%=      5-min Rain = 0
KEN1 201807Z 29011KT 35/03 A2985 RMK A01 T03530029  RH  013%=      5-min Rain = 0
KEN1 201808Z 31011KT 35/03 A2985 RMK A01 T03530025  RH  013%=      5-min Rain = 0
KEN1 201809Z 30011KT 35/03 A2985 RMK A01 T03520027  RH  013%=      5-min Rain = 0
KEN1 201810Z 31008KT 35/03 A2985 RMK A01 T03520030  RH  013%=      5-min Rain = 0
KEN1 201811Z 29009KT 35/04 A2985 RMK A01 T03540035  RH  014%=      5-min Rain = 0
KEN1 201812Z 28007KT 36/03 A2985 RMK A01 T03550030  RH  013%=      5-min Rain = 0
KEN1 201813Z 28008KT 36/03 A2985 RMK A01 T03560030  RH  013%=      5-min Rain = 0
KEN1 201814Z 29009KT 36/03 A2985 RMK A01 T03560030  RH  013%=      5-min Rain = 0
KEN1 201815Z 27015G36KT 36/03 A2985 RMK A01 T03560027  RH  013%=      5-min Rain = 0
KEN1 201816Z 24019G24KT 36/03 A2985 RMK A01 T03590025  RH  012%=      5-min Rain = 0
KEN1 201817Z 23013G18KT 36/02 A2985 RMK A01 T03600020  RH  012%=      5-min Rain = 0
KEN1 201818Z 24018G24KT 36/04 A2985 RMK A01 T03620035  RH  013%=      5-min Rain = 0
KEN1 201819Z 24018KT 36/02 A2986 RMK A01 T03640018  RH  011%=      5-min Rain = 0
KEN1 201820Z 24014KT 36/02 A2985 RMK A01 T03620015  RH  011%=      5-min Rain = 0
KEN1 201821Z 26014KT 36/01 A2985 RMK A01 T03600014  RH  011%=      5-min Rain = 0
KEN1 201822Z 25017KT 36/02 A2985 RMK A01 T03600017  RH  012%=      5-min Rain = 0
KEN1 201823Z 26014KT 36/01 A2985 RMK A01 T03600013  RH  011%=      5-min Rain = 0
KEN1 201824Z 25011KT 36/01 A2985 RMK A01 T03600013  RH  011%=      5-min Rain = 0
KEN1 201825Z 23012KT 36/02 A2985 RMK A01 T03600022  RH  012%=      5-min Rain = 0
KEN1 201826Z 23013KT 36/02 A2985 RMK A01 T03600021  RH  012%=      5-min Rain = 0
KEN1 201827Z 24011KT 36/02 A2985 RMK A01 T03590020  RH  012%=      5-min Rain = 0
KEN1 201828Z 23012KT 36/02 A2985 RMK A01 T03580015  RH  012%=      5-min Rain = 0
KEN1 201829Z 23012KT 36/02 A2985 RMK A01 T03570023  RH  012%=      5-min Rain = 0
KEN1 201830Z 22009KT 36/02 A2985 RMK A01 T03580022  RH  012%=      5-min Rain = 0
KEN1 201831Z 22008KT 36/02 A2985 RMK A01 T03590024  RH  012%=      5-min Rain = 0
KEN1 201832Z 22010KT 36/03 A2985 RMK A01 T03600033  RH  013%=      5-min Rain = 0
KEN1 201833Z 21010KT 36/02 A2985 RMK A01 T03610018  RH  012%=      5-min Rain = 0
KEN1 201834Z 23012KT 36/03 A2985 RMK A01 T03590028  RH  013%=      5-min Rain = 0
KEN1 201835Z 24015KT 36/03 A2985 RMK A01 T03610027  RH  012%=      5-min Rain = 0
KEN1 201836Z 24018G24KT 36/03 A2985 RMK A01 T03630028  RH  012%=      5-min Rain = 0
KEN1 201837Z 24015KT 36/02 A2985 RMK A01 T03640020  RH  012%=      5-min Rain = 0
KEN1 201838Z 26017KT 36/02 A2985 RMK A01 T03630018  RH  012%=      5-min Rain = 0
KEN1 201839Z 23013KT 36/02 A2985 RMK A01 T03610019  RH  012%=      5-min Rain = 0
KEN1 201840Z 22010KT 36/02 A2984 RMK A01 T03600021  RH  012%=      5-min Rain = 0
KEN1 201841Z 23011KT 36/02 A2984 RMK A01 T03590021  RH  012%=      5-min Rain = 0
KEN1 201842Z 25012KT 36/02 A2984 RMK A01 T03590022  RH  012%=      5-min Rain = 0
KEN1 201843Z 28016G21KT 36/03 A2985 RMK A01 T03610030  RH  013%=      5-min Rain = 0
KEN1 201844Z 28017KT 36/02 A2985 RMK A01 T03630024  RH  012%=      5-min Rain = 0
KEN1 201845Z 28013KT 36/03 A2984 RMK A01 T03640027  RH  012%=      5-min Rain = 0
KEN1 201846Z 28014KT 36/02 A2984 RMK A01 T03640024  RH  012%=      5-min Rain = 0
KEN1 201847Z 27011KT 36/03 A2984 RMK A01 T03630026  RH  012%=      5-min Rain = 0
KEN1 201848Z 26010KT 36/02 A2984 RMK A01 T03640024  RH  012%=      5-min Rain = 0
KEN1 201849Z 24012G17KT 36/03 A2984 RMK A01 T03640030  RH  013%=      5-min Rain = 0
KEN1 201850Z 25014KT 36/03 A2984 RMK A01 T03610027  RH  012%=      5-min Rain = 0
KEN1 201851Z 25014KT 36/02 A2984 RMK A01 T03560019  RH  012%=      5-min Rain = 0
KEN1 201852Z 25018KT 35/01 A2984 RMK A01 T03510014  RH  012%=      5-min Rain = 0
KEN1 201853Z 29014KT 35/02 A2984 RMK A01 T03520016  RH  012%=      5-min Rain = 0
KEN1 201854Z 28013KT 36/02 A2984 RMK A01 T03560017  RH  012%=      5-min Rain = 0
KEN1 201855Z 27011KT 36/02 A2984 RMK A01 T03570019  RH  012%=      5-min Rain = 0
KEN1 201856Z 27016G22KT 36/02 A2984 RMK A01 T03590022  RH  012%=      5-min Rain = 0
KEN1 201857Z 28018KT 36/02 A2984 RMK A01 T03610017  RH  012%=      5-min Rain = 0
KEN1 201858Z 26017G25KT 36/02 A2984 RMK A01 T03610021  RH  012%=      5-min Rain = 0
KEN1 201859Z 24022G27KT 36/02 A2984 RMK A01 T03620017  RH  012%=      5-min Rain = 0
KEN1 201900Z 25019KT 36/01 A2985 RMK A01 T03620013  RH  011%=      5-min Rain = 0
KEN1 201901Z 23016KT 36/02 A2984 RMK A01 T03600018  RH  012%=      5-min Rain = 0
KEN1 201902Z 24016KT 36/03 A2984 RMK A01 T03600025  RH  012%=      5-min Rain = 0
KEN1 201903Z 23014KT 36/03 A2984 RMK A01 T03620026  RH  012%=      5-min Rain = 0
KEN1 201904Z 23015G20KT 36/03 A2984 RMK A01 T03630027  RH  012%=      5-min Rain = 0
KEN1 201905Z 23014KT 36/02 A2984 RMK A01 T03620020  RH  012%=      5-min Rain = 0
KEN1 201906Z 24011KT 36/01 A2984 RMK A01 T03570012  RH  011%=      5-min Rain = 0
KEN1 201907Z 24007KT 36/02 A2984 RMK A01 T03560023  RH  012%=      5-min Rain = 0
KEN1 201908Z 24004KT 36/03 A2984 RMK A01 T03600027  RH  012%=      5-min Rain = 0
KEN1 201909Z 27005KT 36/02 A2984 RMK A01 T03620017  RH  012%=      5-min Rain = 0
KEN1 201910Z 28006KT 36/03 A2984 RMK A01 T03630034  RH  013%=      5-min Rain = 0
KEN1 201911Z 31009KT 36/02 A2984 RMK A01 T03640022  RH  012%=      5-min Rain = 0
KEN1 201912Z 31007KT 36/02 A2984 RMK A01 T03620017  RH  011%=      5-min Rain = 0
KEN1 201913Z 30006KT 36/01 A2984 RMK A01 T03580009  RH  011%=      5-min Rain = 0
KEN1 201914Z 28006KT 36/01 A2984 RMK A01 T03550009  RH  011%=      5-min Rain = 0
KEN1 201915Z 27007KT 36/02 A2984 RMK A01 T03550016  RH  012%=      5-min Rain = 0
KEN1 201916Z 26006KT 36/01 A2983 RMK A01 T03550009  RH  011%=      5-min Rain = 0
KEN1 201917Z 28004KT 35/01 A2983 RMK A01 T03540005  RH  011%=      5-min Rain = 0
KEN1 201918Z 28004KT 35/01 A2984 RMK A01 T03540014  RH  012%=      5-min Rain = 0
KEN1 201919Z 28005KT 36/03 A2983 RMK A01 T03550030  RH  013%=      5-min Rain = 0
KEN1 201920Z 27011KT 36/03 A2983 RMK A01 T03590025  RH  012%=      5-min Rain = 0
KEN1 201921Z 27009KT 36/03 A2983 RMK A01 T03610027  RH  012%=      5-min Rain = 0
KEN1 201922Z 27007KT 36/03 A2983 RMK A01 T03610025  RH  012%=      5-min Rain = 0
KEN1 201923Z 29008KT 36/02 A2983 RMK A01 T03580022  RH  012%=      5-min Rain = 0
KEN1 201924Z 28009KT 36/02 A2983 RMK A01 T03550021  RH  012%=      5-min Rain = 0
KEN1 201925Z 28015KT 35/01 A2983 RMK A01 T03530014  RH  012%=      5-min Rain = 0
KEN1 201926Z 25016G22KT 35/02 A2983 RMK A01 T03520018  RH  012%=      5-min Rain = 0
KEN1 201927Z 24016G21KT 35/03 A2983 RMK A01 T03540029  RH  013%=      5-min Rain = 0
KEN1 201928Z 25018KT 35/02 A2983 RMK A01 T03540016  RH  012%=      5-min Rain = 0
KEN1 201929Z 25018G23KT 36/02 A2983 RMK A01 T03570020  RH  012%=      5-min Rain = 0
KEN1 201930Z 25020KT 36/02 A2983 RMK A01 T03620018  RH  012%=      5-min Rain = 0
KEN1 201931Z 24018KT 36/02 A2983 RMK A01 T03640017  RH  011%=      5-min Rain = 0
KEN1 201932Z 26014KT 37/02 A2983 RMK A01 T03650021  RH  012%=      5-min Rain = 0
KEN1 201933Z 27015KT 37/02 A2983 RMK A01 T03660022  RH  012%=      5-min Rain = 0
KEN1 201934Z 27014KT 37/02 A2983 RMK A01 T03660015  RH  011%=      5-min Rain = 0
KEN1 201935Z 28012KT 36/02 A2983 RMK A01 T03640021  RH  012%=      5-min Rain = 0
KEN1 201936Z 26018KT 37/03 A2983 RMK A01 T03660026  RH  012%=      5-min Rain = 0
KEN1 201937Z 27016KT 37/02 A2983 RMK A01 T03680017  RH  011%=      5-min Rain = 0
KEN1 201938Z 28011KT 37/02 A2983 RMK A01 T03650017  RH  011%=      5-min Rain = 0
KEN1 201939Z 28009KT 37/02 A2983 RMK A01 T03650020  RH  012%=      5-min Rain = 0
KEN1 201940Z 28009KT 37/03 A2983 RMK A01 T03660026  RH  012%=      5-min Rain = 0
KEN1 201941Z 29010KT 37/02 A2983 RMK A01 T03670024  RH  012%=      5-min Rain = 0
KEN1 201942Z 28010KT 37/02 A2983 RMK A01 T03660022  RH  012%=      5-min Rain = 0
KEN1 201943Z 29010KT 36/02 A2983 RMK A01 T03640021  RH  012%=      5-min Rain = 0
KEN1 201944Z 28008KT 36/02 A2983 RMK A01 T03610017  RH  012%=      5-min Rain = 0
KEN1 201945Z 25010KT 36/02 A2983 RMK A01 T03610019  RH  012%=      5-min Rain = 0
KEN1 201946Z 24011KT 36/02 A2983 RMK A01 T03620016  RH  011%=      5-min Rain = 0
KEN1 201947Z 23010KT 36/02 A2983 RMK A01 T03630019  RH  012%=      5-min Rain = 0
KEN1 201948Z 23008KT 37/01 A2983 RMK A01 T03650014  RH  011%=      5-min Rain = 0
KEN1 201949Z 22006KT 36/02 A2982 RMK A01 T03640018  RH  011%=      5-min Rain = 0
KEN1 201950Z 24010KT 37/03 A2982 RMK A01 T03650026  RH  012%=      5-min Rain = 0
KEN1 201951Z 24014G20KT 37/02 A2982 RMK A01 T03660020  RH  012%=      5-min Rain = 0
KEN1 201952Z 22017KT 36/01 A2982 RMK A01 T03620012  RH  011%=      5-min Rain = 0
KEN1 201953Z 23014KT 36/01 A2982 RMK A01 T03580011  RH  011%=      5-min Rain = 0
KEN1 201954Z 24013KT 36/02 A2982 RMK A01 T03580020  RH  012%=      5-min Rain = 0
KEN1 201955Z 24012KT 36/01 A2982 RMK A01 T03600013  RH  011%=      5-min Rain = 0
KEN1 201956Z 24008KT 36/00 A2982 RMK A01 T03580002  RH  011%=      5-min Rain = 0
KEN1 201957Z 24008KT 36/01 A2982 RMK A01 T03550008  RH  011%=      5-min Rain = 0
KEN1 201958Z 24010KT 35/01 A2982 RMK A01 T03540012  RH  012%=      5-min Rain = 0
KEN1 201959Z 23012KT 35/01 A2982 RMK A01 T03530011  RH  012%=      5-min Rain = 0
KEN1 202000Z 22010KT 35/01 A2982 RMK A01 T03520012  RH  012%=      5-min Rain = 0
KEN1 202001Z 25008KT 35/01 A2982 RMK A01 T03520014  RH  012%=      5-min Rain = 0
KEN1 202002Z 26009KT 35/02 A2982 RMK A01 T03520015  RH  012%=      5-min Rain = 0
KEN1 202003Z 25011G17KT 36/02 A2982 RMK A01 T03560018  RH  012%=      5-min Rain = 0
KEN1 202004Z 27018KT 36/02 A2982 RMK A01 T03610019  RH  012%=      5-min Rain = 0
KEN1 202005Z 26017KT 36/01 A2982 RMK A01 T03640010  RH  011%=      5-min Rain = 0
KEN1 202006Z 27017KT 36/01 A2982 RMK A01 T03630013  RH  011%=      5-min Rain = 0
KEN1 202007Z 26016KT 36/01 A2982 RMK A01 T03600011  RH  011%=      5-min Rain = 0
KEN1 202008Z 25013KT 36/01 A2982 RMK A01 T03580014  RH  011%=      5-min Rain = 0
KEN1 202009Z 27012KT 36/01 A2982 RMK A01 T03590006  RH  011%=      5-min Rain = 0
KEN1 202010Z 25009KT 36/01 A2982 RMK A01 T03570012  RH  011%=      5-min Rain = 0
KEN1 202011Z 25011KT 36/01 A2982 RMK A01 T03560009  RH  011%=      5-min Rain = 0
KEN1 202012Z 24010G16KT 36/01 A2982 RMK A01 T03550007  RH  011%=      5-min Rain = 0
KEN1 202013Z 26012KT 35/01 A2982 RMK A01 T03530007  RH  011%=      5-min Rain = 0
KEN1 202014Z 25015KT 35/01 A2982 RMK A01 T03540014  RH  012%=      5-min Rain = 0
KEN1 202015Z 23013KT 36/02 A2982 RMK A01 T03620018  RH  012%=      5-min Rain = 0
KEN1 202016Z 25016G23KT 37/02 A2981 RMK A01 T03670023  RH  012%=      5-min Rain = 0
KEN1 202017Z 26012KT 37/02 A2982 RMK A01 T03720023  RH  011%=      5-min Rain = 0
KEN1 202018Z 25015G21KT 37/03 A2982 RMK A01 T03740029  RH  012%=      5-min Rain = 0
KEN1 202019Z 26015KT 38/01 A2982 RMK A01 T03760014  RH  010%=      5-min Rain = 0
KEN1 202020Z 25011KT 37/01 A2982 RMK A01 T03720010  RH  010%=      5-min Rain = 0
KEN1 202021Z 24014KT 37/01 A2982 RMK A01 T03700014  RH  011%=      5-min Rain = 0
KEN1 202022Z 24015KT 37/01 A2981 RMK A01 T03700009  RH  010%=      5-min Rain = 0
KEN1 202023Z 27016KT 37/01 A2982 RMK A01 T03670013  RH  011%=      5-min Rain = 0
KEN1 202024Z 27012KT 36/01 A2982 RMK A01 T03630009  RH  011%=      5-min Rain = 0
KEN1 202025Z 26012KT 36/01 A2982 RMK A01 T03640010  RH  011%=      5-min Rain = 0
KEN1 202026Z 27018KT 37/01 A2982 RMK A01 T03670013  RH  011%=      5-min Rain = 0
KEN1 202027Z 28013KT 37/02 A2982 RMK A01 T03690016  RH  011%=      5-min Rain = 0
KEN1 202028Z 27012KT 37/01 A2981 RMK A01 T03700011  RH  011%=      5-min Rain = 0
KEN1 202029Z 27008KT 37/02 A2981 RMK A01 T03700023  RH  011%=      5-min Rain = 0
KEN1 202030Z 26007KT 37/03 A2981 RMK A01 T03730031  RH  012%=      5-min Rain = 0
KEN1 202031Z 24010KT 38/02 A2981 RMK A01 T03750019  RH  011%=      5-min Rain = 0
KEN1 202032Z 27009KT 37/02 A2981 RMK A01 T03730018  RH  011%=      5-min Rain = 0
KEN1 202033Z 25012G19KT 37/02 A2981 RMK A01 T03690021  RH  011%=      5-min Rain = 0
KEN1 202034Z 25016KT 37/01 A2981 RMK A01 T03660009  RH  011%=      5-min Rain = 0
KEN1 202035Z 24013KT 36/01 A2981 RMK A01 T03610012  RH  011%=      5-min Rain = 0
KEN1 202036Z 25014KT 36/02 A2981 RMK A01 T03590016  RH  012%=      5-min Rain = 0
KEN1 202037Z 26013KT 36/02 A2981 RMK A01 T03570017  RH  012%=      5-min Rain = 0
KEN1 202038Z 26012KT 36/01 A2981 RMK A01 T03570009  RH  011%=      5-min Rain = 0
KEN1 202039Z 26011KT 36/01 A2981 RMK A01 T03560010  RH  011%=      5-min Rain = 0
KEN1 202040Z 26010KT 36/01 A2981 RMK A01 T03550007  RH  011%=      5-min Rain = 0
KEN1 202041Z 26008KT 36/02 A2981 RMK A01 T03550023  RH  012%=      5-min Rain = 0
KEN1 202042Z 25009KT 36/02 A2981 RMK A01 T03570019  RH  012%=      5-min Rain = 0
KEN1 202043Z 25013KT 36/02 A2981 RMK A01 T03610021  RH  012%=      5-min Rain = 0
KEN1 202044Z 24015G20KT 36/02 A2981 RMK A01 T03640019  RH  012%=      5-min Rain = 0
KEN1 202045Z 23010KT 36/02 A2981 RMK A01 T03630019  RH  012%=      5-min Rain = 0
KEN1 202046Z 23012KT 36/03 A2981 RMK A01 T03600026  RH  012%=      5-min Rain = 0
KEN1 202047Z 26014KT 36/02 A2981 RMK A01 T03580018  RH  012%=      5-min Rain = 0
KEN1 202048Z 25013KT 36/02 A2981 RMK A01 T03570019  RH  012%=      5-min Rain = 0
KEN1 202049Z 25012KT 36/02 A2981 RMK A01 T03590016  RH  012%=      5-min Rain = 0
KEN1 202050Z 25013KT 36/03 A2981 RMK A01 T03590025  RH  012%=      5-min Rain = 0
KEN1 202051Z 24014KT 36/01 A2981 RMK A01 T03580014  RH  011%=      5-min Rain = 0
KEN1 202052Z 24012KT 36/02 A2981 RMK A01 T03590019  RH  012%=      5-min Rain = 0
KEN1 202053Z 25010KT 37/02 A298 RMK A01 T03650018  RH  011%=      5-min Rain = 0
KEN1 202054Z 28012KT 37/02 A298 RMK A01 T03660019  RH  011%=      5-min Rain = 0
KEN1 202055Z 27012KT 37/02 A298 RMK A01 T03680022  RH  011%=      5-min Rain = 0
KEN1 202056Z 27012KT 37/02 A298 RMK A01 T03700017  RH  011%=      5-min Rain = 0
KEN1 202057Z 25010KT 37/02 A298 RMK A01 T03710022  RH  011%=      5-min Rain = 0
KEN1 202058Z 24016G21KT 37/02 A298 RMK A01 T03730019  RH  011%=      5-min Rain = 0
KEN1 202059Z 24015KT 38/02 A298 RMK A01 T03750016  RH  011%=      5-min Rain = 0
KEN1 202100Z 25012G19KT 37/01 A298 RMK A01 T03740005  RH  010%=      5-min Rain = 0
KEN1 202101Z 27016KT 37/01 A298 RMK A01 T03730014  RH  011%=      5-min Rain = 0
KEN1 202102Z 25021KT 38/02 A298 RMK A01 T03750017  RH  011%=      5-min Rain = 0
KEN1 202103Z 24022G28KT 38/01 A298 RMK A01 T03760013  RH  010%=      5-min Rain = 0
KEN1 202104Z 23020G26KT 38/01 A298 RMK A01 T03760011  RH  010%=      5-min Rain = 0
KEN1 202105Z 24015G20KT 37/02 A298 RMK A01 T03740016  RH  011%=      5-min Rain = 0
KEN1 202106Z 25016KT 38/02 A298 RMK A01 T03750018  RH  011%=      5-min Rain = 0
KEN1 202107Z 24015KT 38/01 A298 RMK A01 T03750013  RH  010%=      5-min Rain = 0
KEN1 202108Z 25014KT 38/02 A298 RMK A01 T03750023  RH  011%=      5-min Rain = 0
KEN1 202109Z 25015KT 38/02 A298 RMK A01 T03770016  RH  011%=      5-min Rain = 0
KEN1 202110Z 25017G24KT 38/02 A298 RMK A01 T03770015  RH  010%=      5-min Rain = 0
KEN1 202111Z 22020KT 38/02 A2979 RMK A01 T03780024  RH  011%=      5-min Rain = 0
KEN1 202112Z 24023KT 38/02 A298 RMK A01 T03780017  RH  011%=      5-min Rain = 0
KEN1 202113Z 23020KT 38/01 A298 RMK A01 T03760010  RH  010%=      5-min Rain = 0
KEN1 202114Z 24017KT 37/01 A298 RMK A01 T03730010  RH  010%=      5-min Rain = 0
KEN1 202115Z 23015KT 37/02 A298 RMK A01 T03730023  RH  011%=      5-min Rain = 0
KEN1 202116Z 24017KT 38/01 A298 RMK A01 T03750014  RH  010%=      5-min Rain = 0
KEN1 202117Z 25014G19KT 37/01 A298 RMK A01 T03730008  RH  010%=      5-min Rain = 0
KEN1 202118Z 24012KT 37/01 A298 RMK A01 T03720013  RH  011%=      5-min Rain = 0
KEN1 202119Z 22016G21KT 37/02 A2979 RMK A01 T03730021  RH  011%=      5-min Rain = 0
KEN1 202120Z 23015KT 38/02 A2979 RMK A01 T03750015  RH  011%=      5-min Rain = 0
KEN1 202121Z 24020G26KT 37/02 A2979 RMK A01 T03740019  RH  011%=      5-min Rain = 0
KEN1 202122Z 23019G24KT 38/02 A2979 RMK A01 T03750021  RH  011%=      5-min Rain = 0
KEN1 202123Z 23017KT 37/01 A2979 RMK A01 T03740010  RH  010%=      5-min Rain = 0
KEN1 202124Z 22018KT 37/01 A2979 RMK A01 T03700012  RH  011%=      5-min Rain = 0
KEN1 202125Z 23017KT 37/01 A2979 RMK A01 T03670012  RH  011%=      5-min Rain = 0
KEN1 202126Z 24014KT 37/02 A2979 RMK A01 T03680020  RH  011%=      5-min Rain = 0
KEN1 202127Z 23014KT 37/01 A2979 RMK A01 T03730012  RH  010%=      5-min Rain = 0
KEN1 202128Z 23009KT 37/00 A2979 RMK A01 T03710002  RH  010%=      5-min Rain = 0
KEN1 202129Z 23010KT 37/02 A2979 RMK A01 T03700022  RH  011%=      5-min Rain = 0
KEN1 202130Z 20015KT 37/01 A2978 RMK A01 T03730009  RH  010%=      5-min Rain = 0
KEN1 202131Z 22014KT 37/01 A2979 RMK A01 T03720012  RH  011%=      5-min Rain = 0
KEN1 202132Z 23014KT 37/02 A2979 RMK A01 T03730015  RH  011%=      5-min Rain = 0
KEN1 202133Z 23014KT 37/01 A2979 RMK A01 T03730011  RH  010%=      5-min Rain = 0
KEN1 202134Z 22015KT 37/02 A2978 RMK A01 T03730021  RH  011%=      5-min Rain = 0
KEN1 202135Z 22013KT 37/02 A2978 RMK A01 T03740018  RH  011%=      5-min Rain = 0
KEN1 202136Z 22019G26KT 37/02 A2978 RMK A01 T03740016  RH  011%=      5-min Rain = 0
KEN1 202137Z 24018G24KT 37/01 A2979 RMK A01 T03740014  RH  011%=      5-min Rain = 0
KEN1 202138Z 24017G22KT 38/02 A2979 RMK A01 T03770019  RH  011%=      5-min Rain = 0
KEN1 202139Z 24017G22KT 38/02 A2979 RMK A01 T03790018  RH  011%=      5-min Rain = 0
KEN1 202140Z 26017G22KT 38/01 A2979 RMK A01 T03800013  RH  010%=      5-min Rain = 0
KEN1 202141Z 25017G23KT 38/01 A2979 RMK A01 T03770011  RH  010%=      5-min Rain = 0
KEN1 202142Z 25018KT 38/01 A2978 RMK A01 T03770010  RH  010%=      5-min Rain = 0
KEN1 202143Z 26016KT 38/02 A2979 RMK A01 T03770016  RH  010%=      5-min Rain = 0
KEN1 202144Z 27015KT 38/01 A2978 RMK A01 T03790009  RH  010%=      5-min Rain = 0
KEN1 202145Z 26016KT 38/01 A2978 RMK A01 T03760012  RH  010%=      5-min Rain = 0
KEN1 202146Z 26017KT 37/01 A2978 RMK A01 T03720006  RH  010%=      5-min Rain = 0
KEN1 202147Z 26012KT 37/M00 A2978 RMK A01 T03701002  RH  010%=      5-min Rain = 0
KEN1 202148Z 24010KT 37/00 A2978 RMK A01 T03690003  RH  010%=      5-min Rain = 0
KEN1 202149Z 23013KT 37/01 A2978 RMK A01 T03700005  RH  010%=      5-min Rain = 0
KEN1 202150Z 25010KT 37/01 A2978 RMK A01 T03700007  RH  010%=      5-min Rain = 0
KEN1 202151Z 26012KT 37/02 A2978 RMK A01 T03730018  RH  011%=      5-min Rain = 0
KEN1 202152Z 26014KT 38/02 A2978 RMK A01 T03770018  RH  011%=      5-min Rain = 0
KEN1 202153Z 25018KT 38/03 A2978 RMK A01 T03790025  RH  011%=      5-min Rain = 0
KEN1 202154Z 26021KT 38/01 A2978 RMK A01 T03800013  RH  010%=      5-min Rain = 0
KEN1 202155Z 23016KT 38/01 A2978 RMK A01 T03780010  RH  010%=      5-min Rain = 0
KEN1 202156Z 25013KT 38/01 A2978 RMK A01 T03770013  RH  010%=      5-min Rain = 0
KEN1 202157Z 27015G20KT 38/02 A2978 RMK A01 T03760016  RH  011%=      5-min Rain = 0
KEN1 202158Z 26015KT 38/01 A2978 RMK A01 T03750014  RH  010%=      5-min Rain = 0
KEN1 202159Z 25016KT 37/01 A2978 RMK A01 T03730014  RH  011%=      5-min Rain = 0
KEN1 202200Z 25016KT 37/01 A2978 RMK A01 T03740008  RH  010%=      5-min Rain = 0
KEN1 202201Z 25013G19KT 38/01 A2978 RMK A01 T03750012  RH  010%=      5-min Rain = 0
KEN1 202202Z 25012G17KT 38/01 A2978 RMK A01 T03770014  RH  010%=      5-min Rain = 0
KEN1 202203Z 26019KT 38/01 A2978 RMK A01 T03760005  RH  010%=      5-min Rain = 0
KEN1 202204Z 26019KT 37/01 A2978 RMK A01 T03730007  RH  010%=      5-min Rain = 0
KEN1 202205Z 25017KT 37/00 A2978 RMK A01 T03740003  RH  010%=      5-min Rain = 0
KEN1 202206Z 25013KT 37/01 A2978 RMK A01 T03740010  RH  010%=      5-min Rain = 0
KEN1 202207Z 25013G19KT 38/01 A2978 RMK A01 T03770012  RH  010%=      5-min Rain = 0
KEN1 202208Z 23018KT 38/02 A2977 RMK A01 T03790018  RH  011%=      5-min Rain = 0
KEN1 202209Z 23019KT 38/01 A2977 RMK A01 T03800013  RH  010%=      5-min Rain = 0
KEN1 202210Z 24019KT 38/01 A2978 RMK A01 T03790007  RH  010%=      5-min Rain = 0
KEN1 202211Z 24017KT 38/01 A2978 RMK A01 T03770012  RH  010%=      5-min Rain = 0
KEN1 202212Z 23015KT 38/01 A2977 RMK A01 T03760006  RH  010%=      5-min Rain = 0
KEN1 202213Z 25013KT 37/01 A2977 RMK A01 T03730010  RH  010%=      5-min Rain = 0
KEN1 202214Z 24019G25KT 37/01 A2977 RMK A01 T03710007  RH  010%=      5-min Rain = 0
KEN1 202215Z 24021KT 37/01 A2978 RMK A01 T03730007  RH  010%=      5-min Rain = 0
KEN1 202216Z 24018KT 37/01 A2978 RMK A01 T03720010  RH  010%=      5-min Rain = 0
KEN1 202217Z 25018G23KT 37/01 A2978 RMK A01 T03720007  RH  010%=      5-min Rain = 0
KEN1 202218Z 25017G22KT 37/00 A2978 RMK A01 T037100-0  RH  010%=      5-min Rain = 0
KEN1 202219Z 26015G24KT 37/01 A2977 RMK A01 T03710012  RH  011%=      5-min Rain = 0
KEN1 202220Z 24020G28KT 37/01 A2977 RMK A01 T03740009  RH  010%=      5-min Rain = 0
KEN1 202221Z 24019KT 37/01 A2978 RMK A01 T03710006  RH  010%=      5-min Rain = 0
KEN1 202222Z 24016KT 37/00 A2977 RMK A01 T036600-0  RH  010%=      5-min Rain = 0
KEN1 202223Z 25018KT 37/00 A2977 RMK A01 T036500-0  RH  010%=      5-min Rain = 0
KEN1 202224Z 25018G24KT 37/01 A2977 RMK A01 T03680006  RH  010%=      5-min Rain = 0
KEN1 202225Z 25021KT 37/01 A2977 RMK A01 T03710005  RH  010%=      5-min Rain = 0
KEN1 202226Z 24020G26KT 37/00 A2977 RMK A01 T03720003  RH  010%=      5-min Rain = 0
KEN1 202227Z 24019KT 37/01 A2977 RMK A01 T03740005  RH  010%=      5-min Rain = 0
KEN1 202228Z 24019KT 37/00 A2977 RMK A01 T03730002  RH  010%=      5-min Rain = 0
KEN1 202229Z 24020KT 37/01 A2977 RMK A01 T03710005  RH  010%=      5-min Rain = 0
KEN1 202230Z 25018KT 37/M00 A2977 RMK A01 T03661003  RH  010%=      5-min Rain = 0
KEN1 202231Z 25013KT 36/00 A2977 RMK A01 T036100-0  RH  010%=      5-min Rain = 0
KEN1 202232Z 24010KT 36/01 A2977 RMK A01 T03590008  RH  011%=      5-min Rain = 0
KEN1 202233Z 23013KT 36/00 A2977 RMK A01 T03570004  RH  011%=      5-min Rain = 0
KEN1 202234Z 23013KT 36/M00 A2977 RMK A01 T03561001  RH  010%=      5-min Rain = 0
KEN1 202235Z 23012KT 36/00 A2977 RMK A01 T03550002  RH  011%=      5-min Rain = 0
KEN1 202236Z 23011KT 36/00 A2977 RMK A01 T03560003  RH  011%=      5-min Rain = 0
KEN1 202237Z 22010KT 36/00 A2977 RMK A01 T03610002  RH  010%=      5-min Rain = 0
KEN1 202238Z 23011KT 36/00 A2977 RMK A01 T03640004  RH  010%=      5-min Rain = 0
KEN1 202239Z 23009KT 36/00 A2977 RMK A01 T03640003  RH  010%=      5-min Rain = 0
KEN1 202240Z 22009KT 37/01 A2977 RMK A01 T03660011  RH  011%=      5-min Rain = 0
KEN1 202241Z 23010KT 37/01 A2977 RMK A01 T03680006  RH  010%=      5-min Rain = 0
KEN1 202242Z 23009KT 37/01 A2977 RMK A01 T03690007  RH  010%=      5-min Rain = 0
KEN1 202243Z 24010KT 37/01 A2977 RMK A01 T03700014  RH  011%=      5-min Rain = 0
KEN1 202244Z 24012KT 37/01 A2977 RMK A01 T03720005  RH  010%=      5-min Rain = 0
KEN1 202245Z 23012KT 37/01 A2977 RMK A01 T03730011  RH  010%=      5-min Rain = 0
KEN1 202246Z 24018G23KT 37/01 A2977 RMK A01 T03730014  RH  011%=      5-min Rain = 0
KEN1 202247Z 24017KT 37/M00 A2977 RMK A01 T03701002  RH  010%=      5-min Rain = 0
KEN1 202248Z 25020KT 37/00 A2977 RMK A01 T036500-0  RH  010%=      5-min Rain = 0
KEN1 202249Z 25021KT 36/M00 A2977 RMK A01 T03631002  RH  010%=      5-min Rain = 0
KEN1 202250Z 25017KT 36/M01 A2977 RMK A01 T03631006  RH  010%=      5-min Rain = 0
KEN1 202251Z 24018KT 37/M00 A2977 RMK A01 T03661002  RH  010%=      5-min Rain = 0
KEN1 202252Z 24019G24KT 37/00 A2977 RMK A01 T03680001  RH  010%=      5-min Rain = 0
KEN1 202253Z 25021KT 37/00 A2977 RMK A01 T03710001  RH  010%=      5-min Rain = 0
KEN1 202254Z 25019KT 37/00 A2977 RMK A01 T03730000  RH  010%=      5-min Rain = 0
KEN1 202255Z 25020KT 37/M00 A2977 RMK A01 T03731001  RH  009%=      5-min Rain = 0
KEN1 202256Z 24020KT 37/00 A2977 RMK A01 T03720004  RH  010%=      5-min Rain = 0
KEN1 202257Z 24018KT 37/01 A2977 RMK A01 T03720008  RH  010%=      5-min Rain = 0
KEN1 202258Z 25017KT 37/00 A2977 RMK A01 T03730001  RH  010%=      5-min Rain = 0
KEN1 202259Z 23015G21KT 37/01 A2976 RMK A01 T03710008  RH  010%=      5-min Rain = 0
KEN1 202300Z 23017KT 37/01 A2976 RMK A01 T03710006  RH  010%=      5-min Rain = 0
KEN1 202301Z 22019KT 37/00 A2976 RMK A01 T03710004  RH  010%=      5-min Rain = 0
KEN1 202302Z 22014G19KT 37/01 A2976 RMK A01 T03700007  RH  010%=      5-min Rain = 0
KEN1 202303Z 23018KT 37/00 A2976 RMK A01 T03700004  RH  010%=      5-min Rain = 0
KEN1 202304Z 23014KT 37/01 A2976 RMK A01 T03680011  RH  011%=      5-min Rain = 0
KEN1 202305Z 23015KT 36/01 A2976 RMK A01 T03630009  RH  011%=      5-min Rain = 0
KEN1 202306Z 23013KT 36/M00 A2976 RMK A01 T03601002  RH  010%=      5-min Rain = 0
KEN1 202307Z 24009KT 36/01 A2976 RMK A01 T03570006  RH  011%=      5-min Rain = 0
KEN1 202308Z 25011KT 36/01 A2976 RMK A01 T03550010  RH  011%=      5-min Rain = 0
KEN1 202309Z 26011KT 35/M00 A2976 RMK A01 T03541001  RH  011%=      5-min Rain = 0
KEN1 202310Z 24012G17KT 35/M01 A2976 RMK A01 T03531006  RH  010%=      5-min Rain = 0
KEN1 202311Z 24014KT 35/00 A2976 RMK A01 T03530001  RH  011%=      5-min Rain = 0
KEN1 202312Z 25016KT 35/M01 A2976 RMK A01 T03521006  RH  010%=      5-min Rain = 0
KEN1 202313Z 25015KT 35/M01 A2976 RMK A01 T03541005  RH  010%=      5-min Rain = 0
KEN1 202314Z 24016KT 36/M00 A2976 RMK A01 T03601002  RH  010%=      5-min Rain = 0
KEN1 202315Z 25015KT 36/M00 A2976 RMK A01 T03641003  RH  010%=      5-min Rain = 0
KEN1 202316Z 25015G20KT 37/M00 A2976 RMK A01 T03661002  RH  010%=      5-min Rain = 0
KEN1 202317Z 24015KT 37/01 A2976 RMK A01 T03690006  RH  010%=      5-min Rain = 0
KEN1 202318Z 24016KT 37/00 A2976 RMK A01 T03710002  RH  010%=      5-min Rain = 0
KEN1 202319Z 23014KT 37/00 A2976 RMK A01 T03710002  RH  010%=      5-min Rain = 0
KEN1 202320Z 23015KT 37/01 A2976 RMK A01 T03710006  RH  010%=      5-min Rain = 0
KEN1 202321Z 23013KT 37/00 A2976 RMK A01 T03700001  RH  010%=      5-min Rain = 0
KEN1 202322Z 24012KT 37/01 A2976 RMK A01 T03700009  RH  010%=      5-min Rain = 0
KEN1 202323Z 24010KT 37/M00 A2976 RMK A01 T03701001  RH  010%=      5-min Rain = 0
KEN1 202324Z 25011KT 37/00 A2976 RMK A01 T03700004  RH  010%=      5-min Rain = 0
KEN1 202325Z 23011KT 37/01 A2976 RMK A01 T03700010  RH  011%=      5-min Rain = 0
KEN1 202326Z 22012KT 37/01 A2976 RMK A01 T03710013  RH  011%=      5-min Rain = 0
KEN1 202327Z 23014KT 37/00 A2976 RMK A01 T03700004  RH  010%=      5-min Rain = 0
KEN1 202328Z 22013G18KT 37/01 A2976 RMK A01 T03660005  RH  010%=      5-min Rain = 0
KEN1 202329Z 22014KT 37/00 A2975 RMK A01 T03650004  RH  010%=      5-min Rain = 0
KEN1 202330Z 22015KT 37/00 A2975 RMK A01 T03670003  RH  010%=      5-min Rain = 0
KEN1 202331Z 23013KT 37/01 A2975 RMK A01 T03680007  RH  010%=      5-min Rain = 0
KEN1 202332Z 24012KT 37/01 A2976 RMK A01 T03710013  RH  011%=      5-min Rain = 0
KEN1 202333Z 23016KT 37/01 A2975 RMK A01 T03720006  RH  010%=      5-min Rain = 0
KEN1 202334Z 23014G19KT 37/M00 A2976 RMK A01 T03691001  RH  010%=      5-min Rain = 0
KEN1 202335Z 23011G16KT 37/00 A2975 RMK A01 T03650004  RH  010%=      5-min Rain = 0
KEN1 202336Z 23013KT 36/01 A2975 RMK A01 T03640006  RH  011%=      5-min Rain = 0
KEN1 202337Z 24010KT 36/M00 A2975 RMK A01 T03641001  RH  010%=      5-min Rain = 0
KEN1 202338Z 24009KT 37/01 A2975 RMK A01 T03660007  RH  010%=      5-min Rain = 0
KEN1 202339Z 25011KT 37/01 A2975 RMK A01 T03670013  RH  011%=      5-min Rain = 0
KEN1 202340Z 25011KT 37/M00 A2975 RMK A01 T03651001  RH  010%=      5-min Rain = 0
KEN1 202341Z 24011KT 36/01 A2975 RMK A01 T03640005  RH  010%=      5-min Rain = 0
KEN1 202342Z 25013KT 36/00 A2975 RMK A01 T03640002  RH  010%=      5-min Rain = 0
KEN1 202343Z 25013KT 37/M01 A2975 RMK A01 T03661006  RH  010%=      5-min Rain = 0
KEN1 202344Z 25015KT 37/M01 A2975 RMK A01 T03671008  RH  009%=      5-min Rain = 0
KEN1 202345Z 24012KT 37/00 A2975 RMK A01 T03670000  RH  010%=      5-min Rain = 0
KEN1 202346Z 24013KT 37/01 A2975 RMK A01 T03660006  RH  010%=      5-min Rain = 0
KEN1 202347Z 24016KT 37/00 A2975 RMK A01 T03650003  RH  010%=      5-min Rain = 0
KEN1 202348Z 24017KT 37/M00 A2975 RMK A01 T03651002  RH  010%=      5-min Rain = 0
KEN1 202349Z 23015G20KT 37/00 A2975 RMK A01 T03650001  RH  010%=      5-min Rain = 0
KEN1 202350Z 24017KT 37/M00 A2975 RMK A01 T03661002  RH  010%=      5-min Rain = 0
KEN1 202351Z 24013KT 37/M00 A2975 RMK A01 T03661001  RH  010%=      5-min Rain = 0
KEN1 202352Z 24014KT 37/M00 A2975 RMK A01 T03651004  RH  010%=      5-min Rain = 0
KEN1 202353Z 24012KT 36/M01 A2975 RMK A01 T03641010  RH  009%=      5-min Rain = 0
KEN1 202354Z 22009KT 36/00 A2975 RMK A01 T03630001  RH  010%=      5-min Rain = 0
KEN1 202355Z 23010KT 36/01 A2975 RMK A01 T03630011  RH  011%=      5-min Rain = 0
KEN1 202356Z 22010KT 36/M01 A2975 RMK A01 T03611007  RH  010%=      5-min Rain = 0
KEN1 202357Z 24009KT 36/00 A2975 RMK A01 T035900-0  RH  010%=      5-min Rain = 0
KEN1 202358Z 24008KT 36/00 A2975 RMK A01 T03580002  RH  011%=      5-min Rain = 0
KEN1 202359Z 24010KT 36/01 A2975 RMK A01 T03580007  RH  011%=      5-min Rain = 0
KEN1 210000Z 23009KT 36/01 A2975 RMK A01 T03590007  RH  011%=      5-min Rain = 0
KEN1 210001Z 24010KT 36/01 A2975 RMK A01 T03620008  RH  011%=      5-min Rain = 0
KEN1 210002Z 21013KT 36/01 A2975 RMK A01 T03640012  RH  011%=      5-min Rain = 0
KEN1 210003Z 22013KT 37/01 A2975 RMK A01 T03650012  RH  011%=      5-min Rain = 0
KEN1 210004Z 23015KT 37/01 A2975 RMK A01 T03650007  RH  011%=      5-min Rain = 0
KEN1 210005Z 23017KT 37/01 A2975 RMK A01 T03650005  RH  010%=      5-min Rain = 0
KEN1 210006Z 23017KT 36/00 A2975 RMK A01 T03630001  RH  010%=      5-min Rain = 0
KEN1 210007Z 22018KT 36/00 A2975 RMK A01 T03630002  RH  010%=      5-min Rain = 0
KEN1 210008Z 22017KT 36/00 A2975 RMK A01 T03630004  RH  010%=      5-min Rain = 0
KEN1 210009Z 22015G20KT 36/01 A2975 RMK A01 T03620007  RH  011%=      5-min Rain = 0
KEN1 210010Z 22014KT 36/01 A2975 RMK A01 T03620012  RH  011%=      5-min Rain = 0
KEN1 210011Z 22014KT 36/01 A2975 RMK A01 T03600012  RH  011%=      5-min Rain = 0
KEN1 210012Z 22014KT 36/01 A2975 RMK A01 T03580007  RH  011%=      5-min Rain = 0
KEN1 210013Z 22014KT 36/01 A2975 RMK A01 T03560009  RH  011%=      5-min Rain = 0
KEN1 210014Z 22014KT 36/00 A2975 RMK A01 T03560004  RH  011%=      5-min Rain = 0
KEN1 210015Z 22013KT 36/01 A2975 RMK A01 T03570011  RH  011%=      5-min Rain = 0
KEN1 210016Z 23013KT 36/01 A2975 RMK A01 T03580009  RH  011%=      5-min Rain = 0
KEN1 210017Z 22010KT 36/01 A2975 RMK A01 T03580014  RH  011%=      5-min Rain = 0
KEN1 210018Z 23011KT 36/01 A2975 RMK A01 T03590013  RH  011%=      5-min Rain = 0
KEN1 210019Z 22011KT 36/01 A2975 RMK A01 T03590010  RH  011%=      5-min Rain = 0
KEN1 210020Z 22010KT 36/01 A2975 RMK A01 T03590013  RH  011%=      5-min Rain = 0
KEN1 210021Z 22011KT 36/02 A2975 RMK A01 T03580015  RH  012%=      5-min Rain = 0
KEN1 210022Z 22011KT 36/02 A2975 RMK A01 T03570019  RH  012%=      5-min Rain = 0
KEN1 210023Z 22014KT 36/01 A2975 RMK A01 T03550011  RH  011%=      5-min Rain = 0
KEN1 210024Z 21013KT 35/01 A2975 RMK A01 T03530008  RH  011%=      5-min Rain = 0
KEN1 210025Z 22011KT 35/01 A2975 RMK A01 T03510005  RH  011%=      5-min Rain = 0
KEN1 210026Z 22010KT 35/01 A2975 RMK A01 T03510009  RH  012%=      5-min Rain = 0
KEN1 210027Z 22010KT 35/02 A2975 RMK A01 T03510015  RH  012%=      5-min Rain = 0
KEN1 210028Z 21012KT 35/01 A2975 RMK A01 T03520011  RH  012%=      5-min Rain = 0
KEN1 210029Z 21011KT 35/01 A2975 RMK A01 T03530011  RH  012%=      5-min Rain = 0
KEN1 210030Z 21011KT 35/01 A2975 RMK A01 T03520013  RH  012%=      5-min Rain = 0
KEN1 210031Z 21009KT 35/02 A2975 RMK A01 T03500017  RH  012%=      5-min Rain = 0
KEN1 210032Z 21010KT 35/02 A2975 RMK A01 T03490019  RH  013%=      5-min Rain = 0
KEN1 210033Z 21010KT 35/02 A2975 RMK A01 T03490016  RH  012%=      5-min Rain = 0
KEN1 210034Z 21012KT 35/02 A2975 RMK A01 T03500016  RH  012%=      5-min Rain = 0
KEN1 210035Z 21011KT 35/01 A2975 RMK A01 T03520012  RH  012%=      5-min Rain = 0
KEN1 210036Z 21011KT 35/01 A2975 RMK A01 T03530013  RH  012%=      5-min Rain = 0
KEN1 210037Z 21012KT 35/01 A2975 RMK A01 T03540013  RH  012%=      5-min Rain = 0
KEN1 210038Z 20012KT 36/01 A2975 RMK A01 T03550009  RH  011%=      5-min Rain = 0
KEN1 210039Z 20011KT 36/01 A2975 RMK A01 T03550011  RH  011%=      5-min Rain = 0
KEN1 210040Z 21012KT 36/02 A2975 RMK A01 T03560015  RH  012%=      5-min Rain = 0
KEN1 210041Z 21011KT 36/02 A2975 RMK A01 T03560018  RH  012%=      5-min Rain = 0
KEN1 210042Z 22011KT 36/02 A2975 RMK A01 T03560017  RH  012%=      5-min Rain = 0
KEN1 210043Z 22009KT 36/02 A2975 RMK A01 T03550018  RH  012%=      5-min Rain = 0
KEN1 210044Z 23010KT 36/02 A2975 RMK A01 T03550017  RH  012%=      5-min Rain = 0
KEN1 210045Z 22010KT 36/02 A2975 RMK A01 T03550016  RH  012%=      5-min Rain = 0
KEN1 210046Z 22012KT 36/02 A2975 RMK A01 T03550016  RH  012%=      5-min Rain = 0
KEN1 210047Z 21012KT 36/01 A2975 RMK A01 T03550014  RH  012%=      5-min Rain = 0
KEN1 210048Z 20011KT 36/01 A2975 RMK A01 T03550014  RH  012%=      5-min Rain = 0
KEN1 210049Z 21011KT 36/02 A2975 RMK A01 T03550016  RH  012%=      5-min Rain = 0
KEN1 210050Z 21012KT 36/01 A2975 RMK A01 T03560011  RH  011%=      5-min Rain = 0
KEN1 210051Z 21011KT 36/01 A2975 RMK A01 T03560011  RH  011%=      5-min Rain = 0
KEN1 210052Z 21012KT 36/01 A2974 RMK A01 T03560012  RH  011%=      5-min Rain = 0
KEN1 210053Z 21012KT 36/01 A2974 RMK A01 T03560013  RH  012%=      5-min Rain = 0
KEN1 210054Z 20012KT 36/01 A2974 RMK A01 T03550012  RH  011%=      5-min Rain = 0
KEN1 210055Z 21011KT 36/01 A2974 RMK A01 T03550011  RH  011%=      5-min Rain = 0
KEN1 210056Z 21010KT 36/02 A2974 RMK A01 T03550016  RH  012%=      5-min Rain = 0
KEN1 210057Z 21011KT 35/01 A2974 RMK A01 T03530013  RH  012%=      5-min Rain = 0
KEN1 210058Z 21012KT 35/01 A2974 RMK A01 T03510012  RH  012%=      5-min Rain = 0
KEN1 210059Z 21012KT 35/00 A2974 RMK A01 T03490004  RH  011%=      5-min Rain = 0
KEN1 210100Z 21012KT 35/00 A2974 RMK A01 T03480004  RH  011%=      5-min Rain = 0
KEN1 210101Z 21012KT 35/01 A2974 RMK A01 T03480005  RH  011%=      5-min Rain = 0
KEN1 210102Z 21009KT 35/01 A2974 RMK A01 T03460008  RH  012%=      5-min Rain = 0
KEN1 210103Z 21009KT 34/01 A2974 RMK A01 T03440013  RH  012%=      5-min Rain = 0
KEN1 210104Z 21010KT 34/01 A2974 RMK A01 T03410012  RH  012%=      5-min Rain = 0
KEN1 210105Z 21014KT 34/01 A2974 RMK A01 T03400005  RH  012%=      5-min Rain = 0
KEN1 210106Z 21010KT 34/00 A2974 RMK A01 T03410001  RH  012%=      5-min Rain = 0
KEN1 210107Z 21010KT 34/00 A2974 RMK A01 T03410004  RH  012%=      5-min Rain = 0
KEN1 210108Z 21011KT 34/01 A2974 RMK A01 T03400006  RH  012%=      5-min Rain = 0
KEN1 210109Z 21011KT 34/00 A2974 RMK A01 T03400004  RH  012%=      5-min Rain = 0
KEN1 210110Z 21012KT 34/00 A2974 RMK A01 T03400001  RH  012%=      5-min Rain = 0
KEN1 210111Z 21012KT 34/00 A2975 RMK A01 T03410002  RH  012%=      5-min Rain = 0
KEN1 210112Z 21010KT 34/01 A2975 RMK A01 T03400006  RH  012%=      5-min Rain = 0
KEN1 210113Z 22012KT 34/01 A2975 RMK A01 T03380005  RH  012%=      5-min Rain = 0
KEN1 210114Z 22009KT 34/00 A2975 RMK A01 T03380002  RH  012%=      5-min Rain = 0
KEN1 210115Z 22009KT 34/01 A2975 RMK A01 T03370008  RH  012%=      5-min Rain = 0
KEN1 210116Z 22009KT 34/01 A2975 RMK A01 T03350013  RH  013%=      5-min Rain = 0
KEN1 210117Z 22008KT 33/01 A2975 RMK A01 T03320014  RH  013%=      5-min Rain = 0
KEN1 210118Z 22008KT 33/02 A2975 RMK A01 T03300016  RH  014%=      5-min Rain = 0
KEN1 210119Z 22008KT 33/02 A2975 RMK A01 T03280017  RH  014%=      5-min Rain = 0
KEN1 210120Z 22008KT 33/02 A2975 RMK A01 T03270016  RH  014%=      5-min Rain = 0
KEN1 210121Z 22008KT 33/02 A2975 RMK A01 T03260018  RH  014%=      5-min Rain = 0
KEN1 210122Z 22007KT 33/02 A2975 RMK A01 T03260021  RH  014%=      5-min Rain = 0
KEN1 210123Z 22007KT 33/02 A2975 RMK A01 T03250023  RH  015%=      5-min Rain = 0
KEN1 210124Z 21007KT 32/03 A2975 RMK A01 T03240026  RH  015%=      5-min Rain = 0
KEN1 210125Z 21007KT 32/03 A2975 RMK A01 T03230028  RH  015%=      5-min Rain = 0
KEN1 210126Z 21007KT 32/03 A2975 RMK A01 T03230029  RH  016%=      5-min Rain = 0
KEN1 210127Z 21007KT 32/03 A2975 RMK A01 T03220030  RH  016%=      5-min Rain = 0
KEN1 210128Z 21007KT 32/03 A2975 RMK A01 T03210032  RH  016%=      5-min Rain = 0
KEN1 210129Z 22007KT 32/03 A2975 RMK A01 T03210032  RH  016%=      5-min Rain = 0
KEN1 210130Z 21007KT 32/04 A2975 RMK A01 T03200036  RH  017%=      5-min Rain = 0
KEN1 210131Z 21007KT 32/04 A2975 RMK A01 T03190038  RH  017%=      5-min Rain = 0
KEN1 210132Z 21007KT 32/04 A2975 RMK A01 T03170039  RH  017%=      5-min Rain = 0
KEN1 210133Z 22006KT 32/04 A2975 RMK A01 T03160040  RH  018%=      5-min Rain = 0
KEN1 210134Z 22006KT 31/04 A2975 RMK A01 T03140041  RH  018%=      5-min Rain = 0
KEN1 210135Z 22006KT 31/04 A2975 RMK A01 T03130043  RH  018%=      5-min Rain = 0
KEN1 210136Z 22005KT 31/04 A2975 RMK A01 T03110043  RH  018%=      5-min Rain = 0
KEN1 210137Z 22005KT 31/04 A2975 RMK A01 T03100042  RH  018%=      5-min Rain = 0
KEN1 210138Z 22004KT 31/04 A2975 RMK A01 T03090042  RH  019%=      5-min Rain = 0
KEN1 210139Z 22005KT 31/04 A2975 RMK A01 T03080039  RH  018%=      5-min Rain = 0
KEN1 210140Z 21004KT 31/04 A2975 RMK A01 T03080042  RH  019%=      5-min Rain = 0
KEN1 210141Z 21004KT 31/04 A2975 RMK A01 T03080042  RH  019%=      5-min Rain = 0
KEN1 210142Z 21005KT 31/04 A2975 RMK A01 T03080041  RH  019%=      5-min Rain = 0
KEN1 210143Z 21005KT 31/04 A2975 RMK A01 T03070043  RH  019%=      5-min Rain = 0
KEN1 210144Z 21006KT 31/04 A2975 RMK A01 T03060043  RH  019%=      5-min Rain = 0
KEN1 210145Z 21006KT 30/04 A2975 RMK A01 T03040042  RH  019%=      5-min Rain = 0
KEN1 210146Z 20006KT 30/04 A2975 RMK A01 T03030040  RH  019%=      5-min Rain = 0
KEN1 210147Z 20007KT 30/04 A2975 RMK A01 T03020040  RH  019%=      5-min Rain = 0
KEN1 210148Z 20007KT 30/04 A2974 RMK A01 T03000037  RH  019%=      5-min Rain = 0
KEN1 210149Z 20008KT 30/03 A2974 RMK A01 T02990033  RH  018%=      5-min Rain = 0
KEN1 210150Z 20008KT 30/03 A2974 RMK A01 T02980031  RH  018%=      5-min Rain = 0
KEN1 210151Z 20008KT 30/03 A2974 RMK A01 T02980030  RH  018%=      5-min Rain = 0
KEN1 210152Z 20009KT 30/03 A2975 RMK A01 T02970028  RH  018%=      5-min Rain = 0
KEN1 210153Z 20009KT 30/03 A2975 RMK A01 T02970028  RH  018%=      5-min Rain = 0
KEN1 210154Z 20010KT 30/03 A2975 RMK A01 T02960027  RH  018%=      5-min Rain = 0
KEN1 210155Z 20009KT 30/03 A2975 RMK A01 T02960025  RH  018%=      5-min Rain = 0
KEN1 210156Z 20009KT 30/03 A2975 RMK A01 T02960025  RH  018%=      5-min Rain = 0
KEN1 210157Z 20010KT 30/02 A2975 RMK A01 T02960024  RH  018%=      5-min Rain = 0
KEN1 210158Z 20009KT 30/02 A2975 RMK A01 T02960023  RH  017%=      5-min Rain = 0
KEN1 210159Z 19009KT 30/02 A2975 RMK A01 T02960024  RH  017%=      5-min Rain = 0
KEN1 210200Z 19009KT 30/03 A2975 RMK A01 T02960026  RH  018%=      5-min Rain = 0
KEN1 210201Z 19008KT 29/03 A2975 RMK A01 T02930028  RH  018%=      5-min Rain = 0
KEN1 210202Z 18007KT 29/03 A2975 RMK A01 T02900032  RH  019%=      5-min Rain = 0
KEN1 210203Z 17007KT 29/04 A2975 RMK A01 T02860037  RH  020%=      5-min Rain = 0
KEN1 210204Z 18008KT 28/03 A2975 RMK A01 T02830034  RH  020%=      5-min Rain = 0
KEN1 210205Z 18009KT 28/03 A2975 RMK A01 T02810031  RH  020%=      5-min Rain = 0
KEN1 210206Z 17008KT 28/03 A2975 RMK A01 T02810032  RH  020%=      5-min Rain = 0
KEN1 210207Z 18009KT 28/03 A2975 RMK A01 T02800034  RH  021%=      5-min Rain = 0
KEN1 210208Z 18008KT 28/03 A2975 RMK A01 T02790034  RH  021%=      5-min Rain = 0
KEN1 210209Z 17008KT 28/04 A2975 RMK A01 T02770035  RH  021%=      5-min Rain = 0
KEN1 210210Z 17008KT 28/04 A2975 RMK A01 T02750036  RH  021%=      5-min Rain = 0
KEN1 210211Z 17009KT 27/04 A2975 RMK A01 T02730035  RH  022%=      5-min Rain = 0
KEN1 210212Z 17009KT 27/03 A2975 RMK A01 T02720033  RH  022%=      5-min Rain = 0
KEN1 210213Z 17009KT 27/03 A2975 RMK A01 T02710032  RH  021%=      5-min Rain = 0
KEN1 210214Z 18009KT 27/03 A2975 RMK A01 T02710032  RH  022%=      5-min Rain = 0
KEN1 210215Z 17009KT 27/03 A2975 RMK A01 T02700031  RH  022%=      5-min Rain = 0
KEN1 210216Z 17009KT 27/03 A2975 RMK A01 T02690028  RH  021%=      5-min Rain = 0
KEN1 210217Z 17010KT 27/03 A2975 RMK A01 T02690028  RH  021%=      5-min Rain = 0
KEN1 210218Z 18010KT 27/03 A2975 RMK A01 T02680027  RH  021%=      5-min Rain = 0
KEN1 210219Z 18010KT 27/03 A2975 RMK A01 T02680027  RH  021%=      5-min Rain = 0
KEN1 210220Z 18009KT 27/03 A2975 RMK A01 T02680029  RH  021%=      5-min Rain = 0
KEN1 210221Z 17009KT 27/03 A2975 RMK A01 T02670030  RH  022%=      5-min Rain = 0
KEN1 210222Z 17010KT 27/03 A2975 RMK A01 T02650030  RH  022%=      5-min Rain = 0
KEN1 210223Z 17009KT 26/03 A2975 RMK A01 T02640030  RH  022%=      5-min Rain = 0
KEN1 210224Z 17010KT 26/03 A2975 RMK A01 T02630032  RH  022%=      5-min Rain = 0
KEN1 210225Z 17009KT 26/03 A2975 RMK A01 T02620033  RH  023%=      5-min Rain = 0
KEN1 210226Z 16009KT 26/04 A2975 RMK A01 T02610035  RH  023%=      5-min Rain = 0
KEN1 210227Z 16010KT 26/04 A2975 RMK A01 T02600037  RH  024%=      5-min Rain = 0
KEN1 210228Z 15009KT 26/04 A2975 RMK A01 T02580037  RH  024%=      5-min Rain = 0
KEN1 210229Z 15009KT 26/04 A2975 RMK A01 T02570039  RH  025%=      5-min Rain = 0
KEN1 210230Z 15009KT 26/04 A2975 RMK A01 T02550040  RH  025%=      5-min Rain = 0
KEN1 210231Z 16009KT 25/04 A2975 RMK A01 T02540040  RH  025%=      5-min Rain = 0
KEN1 210232Z 17009KT 26/04 A2975 RMK A01 T02550041  RH  025%=      5-min Rain = 0
KEN1 210233Z 17010KT 26/04 A2975 RMK A01 T02570039  RH  025%=      5-min Rain = 0
KEN1 210234Z 18011KT 26/04 A2975 RMK A01 T02620038  RH  024%=      5-min Rain = 0
KEN1 210235Z 18013KT 27/04 A2975 RMK A01 T02660037  RH  023%=      5-min Rain = 0
KEN1 210236Z 18011KT 27/04 A2975 RMK A01 T02700037  RH  022%=      5-min Rain = 0
KEN1 210237Z 18011KT 27/04 A2975 RMK A01 T02710037  RH  022%=      5-min Rain = 0
KEN1 210238Z 18012KT 27/04 A2975 RMK A01 T02720037  RH  022%=      5-min Rain = 0
KEN1 210239Z 18012KT 27/04 A2976 RMK A01 T02730036  RH  022%=      5-min Rain = 0
KEN1 210240Z 18012KT 27/04 A2976 RMK A01 T02720036  RH  022%=      5-min Rain = 0
KEN1 210241Z 17012KT 27/04 A2976 RMK A01 T02710037  RH  022%=      5-min Rain = 0
KEN1 210242Z 17011KT 27/04 A2976 RMK A01 T02690037  RH  022%=      5-min Rain = 0
KEN1 210243Z 18011KT 27/04 A2976 RMK A01 T02670037  RH  023%=      5-min Rain = 0
KEN1 210244Z 18010KT 27/04 A2976 RMK A01 T02660037  RH  023%=      5-min Rain = 0
KEN1 210245Z 18010KT 26/04 A2976 RMK A01 T02640038  RH  023%=      5-min Rain = 0
KEN1 210246Z 18009KT 26/04 A2976 RMK A01 T02620038  RH  024%=      5-min Rain = 0
KEN1 210247Z 18009KT 26/04 A2976 RMK A01 T02600038  RH  024%=      5-min Rain = 0
KEN1 210248Z 18009KT 26/04 A2976 RMK A01 T02590040  RH  024%=      5-min Rain = 0
KEN1 210249Z 18009KT 26/04 A2976 RMK A01 T02580041  RH  025%=      5-min Rain = 0
KEN1 210250Z 18009KT 26/04 A2976 RMK A01 T02560042  RH  025%=      5-min Rain = 0
KEN1 210251Z 18009KT 26/04 A2976 RMK A01 T02550043  RH  025%=      5-min Rain = 0
KEN1 210252Z 18008KT 25/04 A2976 RMK A01 T02540044  RH  026%=      5-min Rain = 0
KEN1 210253Z 18008KT 25/05 A2976 RMK A01 T02530045  RH  026%=      5-min Rain = 0
KEN1 210254Z 18008KT 25/05 A2976 RMK A01 T02510045  RH  026%=      5-min Rain = 0
KEN1 210255Z 18008KT 25/05 A2976 RMK A01 T02500046  RH  027%=      5-min Rain = 0
KEN1 210256Z 18007KT 25/05 A2976 RMK A01 T02480047  RH  027%=      5-min Rain = 0
KEN1 210257Z 18008KT 25/05 A2976 RMK A01 T02460046  RH  027%=      5-min Rain = 0
KEN1 210258Z 18008KT 25/05 A2976 RMK A01 T02450047  RH  028%=      5-min Rain = 0
KEN1 210259Z 18008KT 24/05 A2976 RMK A01 T02430046  RH  028%=      5-min Rain = 0
KEN1 210300Z 19008KT 24/05 A2976 RMK A01 T02430047  RH  028%=      5-min Rain = 0
KEN1 210301Z 19009KT 24/05 A2976 RMK A01 T02420046  RH  028%=      5-min Rain = 0
KEN1 210302Z 18009KT 24/05 A2976 RMK A01 T02410047  RH  028%=      5-min Rain = 0
KEN1 210303Z 18010KT 24/05 A2976 RMK A01 T02400047  RH  029%=      5-min Rain = 0
KEN1 210304Z 18009KT 24/05 A2976 RMK A01 T02400047  RH  029%=      5-min Rain = 0
KEN1 210305Z 18009KT 24/05 A2976 RMK A01 T02400047  RH  029%=      5-min Rain = 0
KEN1 210306Z 18009KT 24/05 A2976 RMK A01 T02400048  RH  029%=      5-min Rain = 0
KEN1 210307Z 18009KT 24/05 A2976 RMK A01 T02390049  RH  029%=      5-min Rain = 0
KEN1 210308Z 18008KT 24/05 A2976 RMK A01 T02390049  RH  029%=      5-min Rain = 0
KEN1 210309Z 18008KT 24/05 A2976 RMK A01 T02380049  RH  029%=      5-min Rain = 0
KEN1 210310Z 19008KT 24/05 A2976 RMK A01 T02370049  RH  030%=      5-min Rain = 0
KEN1 210311Z 19008KT 24/05 A2976 RMK A01 T02370048  RH  029%=      5-min Rain = 0
KEN1 210312Z 19008KT 24/05 A2976 RMK A01 T02380048  RH  029%=      5-min Rain = 0
KEN1 210313Z 19009KT 24/05 A2976 RMK A01 T02380048  RH  029%=      5-min Rain = 0
KEN1 210314Z 19009KT 24/05 A2976 RMK A01 T02380048  RH  029%=      5-min Rain = 0
KEN1 210315Z 19009KT 24/05 A2976 RMK A01 T02380047  RH  029%=      5-min Rain = 0
KEN1 210316Z 19010KT 24/05 A2976 RMK A01 T02390047  RH  029%=      5-min Rain = 0
KEN1 210317Z 19010KT 24/05 A2977 RMK A01 T02400048  RH  029%=      5-min Rain = 0
KEN1 210318Z 19010KT 24/05 A2977 RMK A01 T02400047  RH  029%=      5-min Rain = 0
KEN1 210319Z 19010KT 24/05 A2976 RMK A01 T02400047  RH  029%=      5-min Rain = 0
KEN1 210320Z 18010KT 24/05 A2976 RMK A01 T02410047  RH  028%=      5-min Rain = 0
KEN1 210321Z 18010KT 24/05 A2976 RMK A01 T02410046  RH  028%=      5-min Rain = 0
KEN1 210322Z 18010KT 24/05 A2976 RMK A01 T02430045  RH  028%=      5-min Rain = 0
KEN1 210323Z 18010KT 24/05 A2976 RMK A01 T02440045  RH  028%=      5-min Rain = 0
KEN1 210324Z 18010KT 24/05 A2976 RMK A01 T02440045  RH  028%=      5-min Rain = 0
KEN1 210325Z 18011KT 25/04 A2976 RMK A01 T02450044  RH  027%=      5-min Rain = 0
KEN1 210326Z 18011KT 25/04 A2976 RMK A01 T02470043  RH  027%=      5-min Rain = 0
KEN1 210327Z 18011KT 25/04 A2976 RMK A01 T02500042  RH  026%=      5-min Rain = 0
KEN1 210328Z 18011KT 25/04 A2976 RMK A01 T02520042  RH  026%=      5-min Rain = 0
KEN1 210329Z 18011KT 25/04 A2976 RMK A01 T02540043  RH  026%=      5-min Rain = 0
KEN1 210330Z 18011KT 25/04 A2977 RMK A01 T02540043  RH  026%=      5-min Rain = 0
KEN1 210331Z 18011KT 25/04 A2977 RMK A01 T02540043  RH  026%=      5-min Rain = 0
KEN1 210332Z 18011KT 25/04 A2977 RMK A01 T02540043  RH  026%=      5-min Rain = 0
KEN1 210333Z 18011KT 25/04 A2977 RMK A01 T02540043  RH  026%=      5-min Rain = 0
KEN1 210334Z 18010KT 25/04 A2977 RMK A01 T02540044  RH  026%=      5-min Rain = 0
KEN1 210335Z 17010KT 25/04 A2977 RMK A01 T02530044  RH  026%=      5-min Rain = 0
KEN1 210336Z 18010KT 25/04 A2977 RMK A01 T02520044  RH  026%=      5-min Rain = 0
KEN1 210337Z 17010KT 25/05 A2977 RMK A01 T02510045  RH  026%=      5-min Rain = 0
KEN1 210338Z 17009KT 25/05 A2977 RMK A01 T02490046  RH  027%=      5-min Rain = 0
KEN1 210339Z 17009KT 25/05 A2977 RMK A01 T02470046  RH  027%=      5-min Rain = 0
KEN1 210340Z 17009KT 24/05 A2977 RMK A01 T02440046  RH  028%=      5-min Rain = 0
KEN1 210341Z 17009KT 24/05 A2977 RMK A01 T02430046  RH  028%=      5-min Rain = 0
KEN1 210342Z 18009KT 24/05 A2977 RMK A01 T02420045  RH  028%=      5-min Rain = 0
KEN1 210343Z 18008KT 24/05 A2977 RMK A01 T02420045  RH  028%=      5-min Rain = 0
KEN1 210344Z 18008KT 24/05 A2977 RMK A01 T02410045  RH  028%=      5-min Rain = 0
KEN1 210345Z 18008KT 24/05 A2977 RMK A01 T02400046  RH  028%=      5-min Rain = 0
KEN1 210346Z 18008KT 24/05 A2977 RMK A01 T02400045  RH  028%=      5-min Rain = 0
KEN1 210347Z 18008KT 24/05 A2977 RMK A01 T02400045  RH  028%=      5-min Rain = 0
KEN1 210348Z 17009KT 24/04 A2977 RMK A01 T02400044  RH  028%=      5-min Rain = 0
KEN1 210349Z 17009KT 24/04 A2977 RMK A01 T02400044  RH  028%=      5-min Rain = 0
KEN1 210350Z 17010KT 24/04 A2977 RMK A01 T02410044  RH  028%=      5-min Rain = 0
KEN1 210351Z 17010KT 24/04 A2977 RMK A01 T02410044  RH  028%=      5-min Rain = 0
KEN1 210352Z 17010KT 24/04 A2977 RMK A01 T02410044  RH  028%=      5-min Rain = 0
KEN1 210353Z 17010KT 24/04 A2977 RMK A01 T02410043  RH  028%=      5-min Rain = 0
KEN1 210354Z 17010KT 24/04 A2977 RMK A01 T02410043  RH  028%=      5-min Rain = 0
KEN1 210355Z 17010KT 24/04 A2977 RMK A01 T02410044  RH  028%=      5-min Rain = 0
KEN1 210356Z 17010KT 24/04 A2977 RMK A01 T02420044  RH  028%=      5-min Rain = 0
KEN1 210357Z 17010KT 24/04 A2977 RMK A01 T02410044  RH  028%=      5-min Rain = 0
KEN1 210358Z 17010KT 24/04 A2977 RMK A01 T02420043  RH  028%=      5-min Rain = 0
KEN1 210359Z 17010KT 24/04 A2977 RMK A01 T02430044  RH  028%=      5-min Rain = 0
KEN1 210400Z 17010KT 24/04 A2977 RMK A01 T02420044  RH  028%=      5-min Rain = 0
KEN1 210401Z 17010KT 24/04 A2977 RMK A01 T02420044  RH  028%=      5-min Rain = 0
KEN1 210402Z 17010KT 24/05 A2977 RMK A01 T02420045  RH  028%=      5-min Rain = 0
KEN1 210403Z 17010KT 24/05 A2977 RMK A01 T02420045  RH  028%=      5-min Rain = 0
KEN1 210404Z 17010KT 24/05 A2977 RMK A01 T02420045  RH  028%=      5-min Rain = 0
KEN1 210405Z 17011KT 24/05 A2977 RMK A01 T02420045  RH  028%=      5-min Rain = 0
KEN1 210406Z 17010KT 24/05 A2977 RMK A01 T02430046  RH  028%=      5-min Rain = 0
KEN1 210407Z 17011KT 24/05 A2977 RMK A01 T02430046  RH  028%=      5-min Rain = 0
KEN1 210408Z 17011KT 24/05 A2977 RMK A01 T02430046  RH  028%=      5-min Rain = 0
KEN1 210409Z 17011KT 24/05 A2977 RMK A01 T02430046  RH  028%=      5-min Rain = 0
KEN1 210410Z 17011KT 24/05 A2977 RMK A01 T02420046  RH  028%=      5-min Rain = 0
KEN1 210411Z 17010KT 24/05 A2977 RMK A01 T02420046  RH  028%=      5-min Rain = 0
KEN1 210412Z 17010KT 24/05 A2977 RMK A01 T02410046  RH  028%=      5-min Rain = 0
KEN1 210413Z 17010KT 24/05 A2977 RMK A01 T02410047  RH  028%=      5-min Rain = 0
KEN1 210414Z 17010KT 24/05 A2977 RMK A01 T02400047  RH  029%=      5-min Rain = 0
KEN1 210415Z 17010KT 24/05 A2977 RMK A01 T02390047  RH  029%=      5-min Rain = 0
KEN1 210416Z 17010KT 24/05 A2977 RMK A01 T02390047  RH  029%=      5-min Rain = 0
KEN1 210417Z 17010KT 24/05 A2977 RMK A01 T02380047  RH  029%=      5-min Rain = 0
KEN1 210418Z 17010KT 24/05 A2977 RMK A01 T02380046  RH  029%=      5-min Rain = 0
KEN1 210419Z 17010KT 24/05 A2977 RMK A01 T02370047  RH  029%=      5-min Rain = 0
KEN1 210420Z 17010KT 24/05 A2977 RMK A01 T02370046  RH  029%=      5-min Rain = 0
KEN1 210421Z 17010KT 24/05 A2977 RMK A01 T02370046  RH  029%=      5-min Rain = 0
KEN1 210422Z 17010KT 24/05 A2977 RMK A01 T02370046  RH  029%=      5-min Rain = 0
KEN1 210423Z 17010KT 24/05 A2977 RMK A01 T02360046  RH  029%=      5-min Rain = 0
KEN1 210424Z 17010KT 24/05 A2977 RMK A01 T02370046  RH  029%=      5-min Rain = 0
KEN1 210425Z 17011KT 24/05 A2977 RMK A01 T02360046  RH  029%=      5-min Rain = 0
KEN1 210426Z 17010KT 24/05 A2977 RMK A01 T02360046  RH  029%=      5-min Rain = 0
KEN1 210427Z 17010KT 24/05 A2977 RMK A01 T02360046  RH  029%=      5-min Rain = 0
KEN1 210428Z 17010KT 24/05 A2977 RMK A01 T02360046  RH  029%=      5-min Rain = 0
KEN1 210429Z 17009KT 24/05 A2977 RMK A01 T02360047  RH  029%=      5-min Rain = 0
KEN1 210430Z 18008KT 24/05 A2977 RMK A01 T02350047  RH  030%=      5-min Rain = 0
KEN1 210431Z 18006KT 23/05 A2977 RMK A01 T02330048  RH  030%=      5-min Rain = 0
KEN1 210432Z 19004KT 23/05 A2977 RMK A01 T02310050  RH  031%=      5-min Rain = 0
KEN1 210433Z 19003KT 23/05 A2977 RMK A01 T02280049  RH  031%=      5-min Rain = 0
KEN1 210434Z 18003KT 23/05 A2977 RMK A01 T02270049  RH  031%=      5-min Rain = 0
KEN1 210435Z 18003KT 23/05 A2977 RMK A01 T02260049  RH  032%=      5-min Rain = 0
KEN1 210436Z 18004KT 23/05 A2977 RMK A01 T02250049  RH  032%=      5-min Rain = 0
KEN1 210437Z 18005KT 23/05 A2977 RMK A01 T02250049  RH  032%=      5-min Rain = 0
KEN1 210438Z 17005KT 22/05 A2977 RMK A01 T02240048  RH  032%=      5-min Rain = 0
KEN1 210439Z 17005KT 22/05 A2977 RMK A01 T02240048  RH  032%=      5-min Rain = 0
KEN1 210440Z 17005KT 22/05 A2977 RMK A01 T02240048  RH  032%=      5-min Rain = 0
KEN1 210441Z 17006KT 22/05 A2977 RMK A01 T02240049  RH  032%=      5-min Rain = 0
KEN1 210442Z 17007KT 22/05 A2977 RMK A01 T02230049  RH  032%=      5-min Rain = 0
KEN1 210443Z 17007KT 22/05 A2977 RMK A01 T02230049  RH  032%=      5-min Rain = 0
KEN1 210444Z 17008KT 22/05 A2977 RMK A01 T02220048  RH  032%=      5-min Rain = 0
KEN1 210445Z 17008KT 22/05 A2977 RMK A01 T02220047  RH  032%=      5-min Rain = 0
KEN1 210446Z 17008KT 22/05 A2977 RMK A01 T02230047  RH  032%=      5-min Rain = 0
KEN1 210447Z 17009KT 22/05 A2977 RMK A01 T02240047  RH  032%=      5-min Rain = 0
KEN1 210448Z 17009KT 23/05 A2977 RMK A01 T02250047  RH  031%=      5-min Rain = 0
KEN1 210449Z 17009KT 23/05 A2977 RMK A01 T02260047  RH  031%=      5-min Rain = 0
KEN1 210450Z 17009KT 23/05 A2977 RMK A01 T02270046  RH  031%=      5-min Rain = 0
KEN1 210451Z 17009KT 23/05 A2977 RMK A01 T02270046  RH  031%=      5-min Rain = 0
KEN1 210452Z 17009KT 23/05 A2977 RMK A01 T02270047  RH  031%=      5-min Rain = 0
KEN1 210453Z 17008KT 23/05 A2977 RMK A01 T02270046  RH  031%=      5-min Rain = 0
KEN1 210454Z 16009KT 23/05 A2977 RMK A01 T02260046  RH  031%=      5-min Rain = 0
KEN1 210455Z 17009KT 23/05 A2977 RMK A01 T02260045  RH  031%=      5-min Rain = 0
KEN1 210456Z 17008KT 23/05 A2977 RMK A01 T02270046  RH  031%=      5-min Rain = 0
KEN1 210457Z 17008KT 23/05 A2977 RMK A01 T02260045  RH  031%=      5-min Rain = 0
KEN1 210458Z 17007KT 23/05 A2977 RMK A01 T02260045  RH  031%=      5-min Rain = 0
KEN1 210459Z 17008KT 23/05 A2977 RMK A01 T02260045  RH  031%=      5-min Rain = 0

Page generated in 0.1258 seconds.